| time (UTC) | temp C | wind direction | speed KPH | gust KPH | rain 1hr cm | rain 24hr cm | rain mn cm | humidity % | barometer mb |
| 20260504040155 | 23 | 314 | 0.0 | 1.6 | 0.00 | 0.69 | 0.69 | 42 | 1020.4 |
| 20260504040025 | 16 | 309 | 0.0 | 1.6 | 0.00 | 0.69 | 0.69 | 74 | 1015.5 |
| 20260504035925 | 16 | 294 | 0.0 | 3.2 | 0.00 | 0.69 | 0.69 | 74 | 1015.5 |
| 20260504035755 | 16 | 273 | 0.0 | 3.2 | 0.00 | 0.69 | 0.69 | 75 | 1015.5 |
| 20260504035655 | 23 | 235 | 0.0 | 0.0 | 0.00 | 0.69 | 0.69 | 42 | 1020.4 |
| 20260504035525 | 16 | 235 | 0.0 | 0.0 | 0.00 | 0.69 | 0.69 | 74 | 1015.5 |
| 20260504035425 | 23 | 208 | 0.0 | 1.6 | 0.00 | 0.69 | 0.69 | 42 | 1020.4 |
| 20260504035255 | 23 | 287 | 1.6 | 4.8 | 0.00 | 0.69 | 0.69 | 42 | 1020.4 |
| 20260504035155 | 16 | 273 | 1.6 | 3.2 | 0.00 | 0.69 | 0.69 | 75 | 1015.5 |
| 20260504035055 | 23 | 284 | 1.6 | 4.8 | 0.00 | 0.69 | 0.69 | 42 | 1020.4 |
| 20260504034955 | 16 | 301 | 0.0 | 4.8 | 0.00 | 0.69 | 0.69 | 76 | 1015.5 |
| 20260504034855 | 16 | 297 | 0.0 | 3.2 | 0.00 | 0.69 | 0.69 | 76 | 1015.5 |
| 20260504034755 | 23 | 303 | 0.0 | 0.0 | 0.00 | 0.69 | 0.69 | 42 | 1020.4 |
| 20260504034655 | 23 | 297 | 0.0 | 3.2 | 0.00 | 0.69 | 0.69 | 42 | 1020.4 |
| 20260504034555 | 16 | 295 | 0.0 | 0.0 | 0.00 | 0.69 | 0.69 | 76 | 1015.4 |
| 20260504034455 | 23 | 294 | 0.0 | 0.0 | 0.00 | 0.69 | 0.69 | 42 | 1020.4 |
| 20260504034355 | 23 | 294 | 0.0 | 0.0 | 0.00 | 0.69 | 0.69 | 42 | 1020.4 |
| 20260504034255 | 16 | 293 | 0.0 | 1.6 | 0.00 | 0.69 | 0.69 | 76 | 1015.4 |
| 20260504034125 | 23 | 282 | 1.6 | 1.6 | 0.00 | 0.69 | 0.69 | 42 | 1020.4 |
| 20260504033955 | 23 | 272 | 1.6 | 3.2 | 0.00 | 0.69 | 0.69 | 42 | 1020.4 |
| 20260504033855 | 23 | 271 | 1.6 | 3.2 | 0.00 | 0.69 | 0.69 | 42 | 1020.4 |
| 20260504033755 | 16 | 272 | 1.6 | 3.2 | 0.00 | 0.69 | 0.69 | 75 | 1015.4 |
| 20260504033655 | 16 | 269 | 1.6 | 3.2 | 0.00 | 0.69 | 0.69 | 75 | 1015.4 |
| 20260504033555 | 23 | 274 | 1.6 | 3.2 | 0.00 | 0.69 | 0.69 | 42 | 1020.4 |
| 20260504033425 | 16 | 243 | 1.6 | 3.2 | 0.00 | 0.69 | 0.69 | 75 | 1015.4 |
| 20260504033325 | 16 | 261 | 0.0 | 3.2 | 0.00 | 0.69 | 0.69 | 75 | 1015.4 |
| 20260504033225 | 23 | 284 | 0.0 | 3.2 | 0.00 | 0.69 | 0.69 | 42 | 1020.4 |
| 20260504033055 | 23 | 290 | 0.0 | 1.6 | 0.00 | 0.69 | 0.69 | 42 | 1020.4 |
| 20260504032955 | 23 | 278 | 0.0 | 1.6 | 0.00 | 0.69 | 0.69 | 42 | 1020.4 |
| 20260504032855 | 23 | 295 | 0.0 | 1.6 | 0.00 | 0.69 | 0.69 | 42 | 1020.4 |
| 20260504032725 | 16 | 300 | 0.0 | 0.0 | 0.00 | 0.69 | 0.69 | 75 | 1015.4 |
| 20260504032625 | 16 | 297 | 0.0 | 0.0 | 0.00 | 0.69 | 0.69 | 75 | 1015.5 |
| 20260504032525 | 23 | 293 | 0.0 | 1.6 | 0.00 | 0.69 | 0.69 | 42 | 1020.4 |
| 20260504032425 | 23 | 276 | 1.6 | 1.6 | 0.00 | 0.69 | 0.69 | 42 | 1020.4 |
| 20260504032325 | 23 | 290 | 1.6 | 3.2 | 0.00 | 0.69 | 0.69 | 42 | 1020.4 |
| 20260504032225 | 16 | 285 | 1.6 | 3.2 | 0.00 | 0.69 | 0.69 | 75 | 1015.4 |
| 20260504032125 | 16 | 295 | 0.0 | 3.2 | 0.00 | 0.69 | 0.69 | 75 | 1015.4 |
| 20260504032025 | 16 | 247 | 0.0 | 3.2 | 0.00 | 0.69 | 0.69 | 75 | 1015.4 |
| 20260504031925 | 23 | 225 | 1.6 | 0.0 | 0.00 | 0.69 | 0.69 | 42 | 1020.4 |
| 20260504031825 | 16 | 271 | 0.0 | 3.2 | 0.00 | 0.69 | 0.69 | 75 | 1015.5 |
| 20260504031725 | 23 | 264 | 0.0 | 3.2 | 0.00 | 0.69 | 0.69 | 42 | 1020.4 |
| 20260504031555 | 23 | 287 | 0.0 | 1.6 | 0.00 | 0.69 | 0.69 | 42 | 1020.4 |
| 20260504031455 | 23 | 296 | 0.0 | 0.0 | 0.00 | 0.69 | 0.69 | 42 | 1020.4 |
| 20260504031355 | 23 | 296 | 0.0 | 0.0 | 0.00 | 0.69 | 0.69 | 42 | 1020.4 |
| 20260504031225 | 17 | 293 | 0.0 | 1.6 | 0.00 | 0.69 | 0.69 | 74 | 1015.5 |
| 20260504031125 | 23 | 284 | 0.0 | 1.6 | 0.00 | 0.69 | 0.69 | 42 | 1020.4 |
| 20260504030955 | 17 | 289 | 0.0 | 1.6 | 0.00 | 0.69 | 0.69 | 73 | 1015.4 |
| 20260504030855 | 17 | 328 | 0.0 | 0.0 | 0.00 | 0.69 | 0.69 | 73 | 1015.4 |
| 20260504030755 | 17 | 329 | 0.0 | 0.0 | 0.00 | 0.69 | 0.69 | 73 | 1015.4 |
| 20260504030625 | 17 | 329 | 0.0 | 0.0 | 0.00 | 0.69 | 0.69 | 73 | 1015.4 |
| 20260504030525 | 23 | 328 | 0.0 | 0.0 | 0.00 | 0.69 | 0.69 | 42 | 1020.4 |
| 20260504030425 | 17 | 329 | 0.0 | 0.0 | 0.00 | 0.69 | 0.69 | 72 | 1015.5 |
| 20260504030325 | 23 | 328 | 0.0 | 0.0 | 0.00 | 0.69 | 0.69 | 42 | 1020.4 |
| 20260504030225 | 17 | 328 | 0.0 | 1.6 | 0.00 | 0.69 | 0.69 | 72 | 1015.5 |
| 20260504030125 | 17 | 344 | 0.0 | 1.6 | 0.00 | 0.69 | 0.69 | 72 | 1015.5 |
| 20260504025955 | 17 | 345 | 0.0 | 0.0 | 0.00 | 0.69 | 0.69 | 72 | 1015.5 |
| 20260504025855 | 17 | 345 | 0.0 | 0.0 | 0.00 | 0.69 | 0.69 | 71 | 1015.5 |
| 20260504025725 | 17 | 345 | 0.0 | 0.0 | 0.00 | 0.69 | 0.69 | 71 | 1015.6 |
| 20260504025555 | 17 | 345 | 0.0 | 0.0 | 0.00 | 0.69 | 0.69 | 71 | 1015.6 |
| 20260504025455 | 23 | 345 | 0.0 | 0.0 | 0.00 | 0.69 | 0.69 | 42 | 1020.4 |
| 20260504025355 | 23 | 321 | 0.0 | 1.6 | 0.00 | 0.69 | 0.69 | 42 | 1020.4 |
| 20260504025225 | 17 | 333 | 0.0 | 0.0 | 0.00 | 0.69 | 0.69 | 71 | 1015.5 |
| 20260504025125 | 23 | 341 | 0.0 | 0.0 | 0.00 | 0.69 | 0.69 | 42 | 1020.4 |
| 20260504025025 | 17 | 341 | 0.0 | 0.0 | 0.00 | 0.69 | 0.69 | 71 | 1015.5 |
| 20260504024925 | 23 | 341 | 0.0 | 0.0 | 0.00 | 0.69 | 0.69 | 42 | 1020.4 |
| 20260504024825 | 23 | 341 | 0.0 | 0.0 | 0.00 | 0.69 | 0.69 | 42 | 1020.4 |
| 20260504024725 | 17 | 341 | 0.0 | 0.0 | 0.00 | 0.69 | 0.69 | 70 | 1015.5 |
| 20260504024625 | 18 | 341 | 0.0 | 0.0 | 0.00 | 0.69 | 0.69 | 70 | 1015.5 |
| 20260504024455 | 23 | 341 | 0.0 | 0.0 | 0.00 | 0.69 | 0.69 | 42 | 1020.4 |
| 20260504024355 | 23 | 341 | 0.0 | 0.0 | 0.00 | 0.69 | 0.69 | 42 | 1020.4 |
| 20260504024255 | 23 | 341 | 0.0 | 0.0 | 0.00 | 0.69 | 0.69 | 42 | 1020.4 |
| 20260504024125 | 23 | 347 | 0.0 | 1.6 | 0.00 | 0.69 | 0.69 | 42 | 1020.4 |
| 20260504024025 | 18 | 319 | 0.0 | 1.6 | 0.00 | 0.69 | 0.69 | 70 | 1015.5 |
| 20260504023925 | 18 | 280 | 0.0 | 1.6 | 0.00 | 0.69 | 0.69 | 70 | 1015.5 |
| 20260504023825 | 23 | 242 | 0.0 | 0.0 | 0.00 | 0.69 | 0.69 | 42 | 1020.4 |
| 20260504023725 | 23 | 242 | 0.0 | 0.0 | 0.00 | 0.69 | 0.69 | 42 | 1020.4 |
| 20260504023625 | 18 | 241 | 0.0 | 0.0 | 0.00 | 0.69 | 0.69 | 69 | 1015.5 |
| 20260504023525 | 18 | 241 | 0.0 | 0.0 | 0.00 | 0.69 | 0.69 | 69 | 1015.5 |
| 20260504023425 | 23 | 242 | 0.0 | 0.0 | 0.00 | 0.69 | 0.69 | 42 | 1020.4 |
| 20260504023325 | 18 | 241 | 0.0 | 0.0 | 0.00 | 0.69 | 0.69 | 69 | 1015.5 |
| 20260504023225 | 18 | 279 | 0.0 | 0.0 | 0.00 | 0.69 | 0.69 | 69 | 1015.5 |
| 20260504023125 | 18 | 321 | 0.0 | 1.6 | 0.00 | 0.69 | 0.69 | 68 | 1015.4 |
| 20260504022955 | 18 | 336 | 0.0 | 0.0 | 0.00 | 0.69 | 0.69 | 68 | 1015.4 |
| 20260504022855 | 18 | 336 | 0.0 | 0.0 | 0.00 | 0.69 | 0.69 | 69 | 1015.4 |
| 20260504022755 | 23 | 333 | 0.0 | 0.0 | 0.00 | 0.69 | 0.69 | 42 | 1020.4 |
| 20260504022655 | 18 | 340 | 0.0 | 3.2 | 0.00 | 0.69 | 0.69 | 68 | 1015.4 |
| 20260504022555 | 23 | 348 | 0.0 | 0.0 | 0.00 | 0.69 | 0.69 | 42 | 1020.4 |
| 20260504022455 | 23 | 348 | 0.0 | 0.0 | 0.00 | 0.69 | 0.69 | 42 | 1020.4 |
| 20260504022325 | 18 | 348 | 0.0 | 0.0 | 0.00 | 0.69 | 0.69 | 68 | 1015.4 |
| 20260504022225 | 18 | 348 | 0.0 | 0.0 | 0.00 | 0.69 | 0.69 | 68 | 1015.4 |
| 20260504022125 | 18 | 348 | 0.0 | 0.0 | 0.00 | 0.69 | 0.69 | 68 | 1015.4 |
| 20260504022025 | 18 | 348 | 0.0 | 0.0 | 0.00 | 0.69 | 0.69 | 68 | 1015.4 |
| 20260504021925 | 23 | 348 | 0.0 | 3.2 | 0.00 | 0.69 | 0.69 | 42 | 1020.4 |
| 20260504021825 | 18 | 342 | 0.0 | 0.0 | 0.00 | 0.69 | 0.69 | 68 | 1015.4 |
| 20260504021655 | 23 | 333 | 0.0 | 1.6 | 0.00 | 0.69 | 0.69 | 42 | 1020.4 |
| 20260504021555 | 23 | 295 | 0.0 | 1.6 | 0.00 | 0.69 | 0.69 | 42 | 1020.4 |
| 20260504021455 | 18 | 291 | 0.0 | 0.0 | 0.00 | 0.69 | 0.69 | 67 | 1015.3 |
| 20260504021355 | 18 | 291 | 0.0 | 0.0 | 0.00 | 0.69 | 0.69 | 67 | 1015.3 |
| 20260504021255 | 23 | 301 | 0.0 | 1.6 | 0.00 | 0.69 | 0.69 | 42 | 1020.4 |
| 20260504021155 | 18 | 354 | 0.0 | 0.0 | 0.00 | 0.69 | 0.69 | 67 | 1015.3 |
| 20260504021055 | 18 | 354 | 0.0 | 0.0 | 0.00 | 0.69 | 0.69 | 67 | 1015.3 |
| 20260504020955 | 23 | 345 | 0.0 | 3.2 | 0.00 | 0.69 | 0.69 | 42 | 1020.4 |
| 20260504020855 | 18 | 308 | 0.0 | 1.6 | 0.00 | 0.69 | 0.69 | 67 | 1015.2 |
| 20260504020755 | 18 | 301 | 0.0 | 0.0 | 0.00 | 0.69 | 0.69 | 67 | 1015.2 |
| 20260504020655 | 18 | 301 | 0.0 | 0.0 | 0.00 | 0.69 | 0.69 | 67 | 1015.2 |
| 20260504020555 | 18 | 262 | 0.0 | 1.6 | 0.00 | 0.69 | 0.69 | 67 | 1015.1 |
| 20260504020455 | 18 | 248 | 0.0 | 0.0 | 0.00 | 0.69 | 0.69 | 66 | 1015.1 |
| 20260504020325 | 23 | 248 | 0.0 | 1.6 | 0.00 | 0.69 | 0.69 | 42 | 1020.4 |
| 20260504020225 | 19 | 325 | 0.0 | 0.0 | 0.00 | 0.69 | 0.69 | 66 | 1015.1 |
| 20260504020125 | 19 | 332 | 0.0 | 0.0 | 0.00 | 0.69 | 0.69 | 66 | 1015.1 |
| 20260504020025 | 23 | 332 | 0.0 | 0.0 | 0.00 | 0.69 | 0.69 | 42 | 1020.4 |
| 20260504015925 | 23 | 332 | 0.0 | 0.0 | 0.00 | 0.69 | 0.69 | 42 | 1020.4 |
| 20260504015755 | 19 | 290 | 0.0 | 1.6 | 0.00 | 0.69 | 0.69 | 65 | 1015.1 |
| 20260504015655 | 19 | 262 | 0.0 | 0.0 | 0.00 | 0.69 | 0.69 | 65 | 1015.2 |
| 20260504015555 | 23 | 332 | 0.0 | 1.6 | 0.00 | 0.69 | 0.69 | 42 | 1020.4 |
| 20260504015455 | 19 | 327 | 0.0 | 0.0 | 0.00 | 0.69 | 0.69 | 65 | 1015.2 |
| 20260504015355 | 23 | 326 | 0.0 | 1.6 | 0.00 | 0.69 | 0.69 | 42 | 1020.4 |
| 20260504015255 | 23 | 315 | 0.0 | 1.6 | 0.00 | 0.69 | 0.69 | 42 | 1020.4 |
| 20260504015155 | 23 | 294 | 0.0 | 3.2 | 0.00 | 0.69 | 0.69 | 42 | 1020.4 |
| 20260504015055 | 19 | 310 | 1.6 | 1.6 | 0.00 | 0.69 | 0.69 | 64 | 1015.2 |
| 20260504014925 | 19 | 291 | 0.0 | 3.2 | 0.00 | 0.69 | 0.69 | 64 | 1015.2 |
| 20260504014825 | 19 | 354 | 0.0 | 1.6 | 0.00 | 0.69 | 0.69 | 64 | 1015.1 |
| 20260504014725 | 23 | 334 | 0.0 | 1.6 | 0.00 | 0.69 | 0.69 | 42 | 1020.4 |
| 20260504014625 | 23 | 277 | 0.0 | 3.2 | 0.00 | 0.69 | 0.69 | 42 | 1020.4 |
| 20260504014525 | 19 | 309 | 1.6 | 1.6 | 0.00 | 0.69 | 0.69 | 64 | 1015.0 |
| 20260504014425 | 23 | 341 | 1.6 | 3.2 | 0.00 | 0.69 | 0.69 | 42 | 1020.4 |
| 20260504014325 | 23 | 321 | 0.0 | 3.2 | 0.00 | 0.69 | 0.69 | 42 | 1020.4 |
| 20260504014225 | 19 | 316 | 0.0 | 1.6 | 0.00 | 0.69 | 0.69 | 64 | 1015.0 |
| 20260504014125 | 19 | 320 | 1.6 | 1.6 | 0.00 | 0.69 | 0.69 | 63 | 1015.0 |
| 20260504014025 | 23 | 302 | 1.6 | 3.2 | 0.00 | 0.69 | 0.69 | 42 | 1020.4 |
| 20260504013925 | 23 | 241 | 0.0 | 3.2 | 0.00 | 0.69 | 0.69 | 42 | 1020.4 |
| 20260504013825 | 23 | 193 | 0.0 | 0.0 | 0.00 | 0.69 | 0.69 | 42 | 1020.4 |
| 20260504013725 | 20 | 189 | 0.0 | 1.6 | 0.00 | 0.69 | 0.69 | 63 | 1015.0 |
| 20260504013555 | 20 | 328 | 0.0 | 0.0 | 0.00 | 0.69 | 0.69 | 63 | 1015.0 |
| 20260504013455 | 20 | 319 | 0.0 | 1.6 | 0.00 | 0.69 | 0.69 | 62 | 1015.0 |
| 20260504013355 | 23 | 305 | 0.0 | 1.6 | 0.00 | 0.69 | 0.69 | 42 | 1020.4 |
| 20260504013255 | 23 | 302 | 1.6 | 1.6 | 0.00 | 0.69 | 0.69 | 42 | 1020.4 |
| 20260504013155 | 23 | 317 | 1.6 | 3.2 | 0.00 | 0.69 | 0.69 | 42 | 1020.4 |
| 20260504013055 | 20 | 293 | 1.6 | 3.2 | 0.00 | 0.69 | 0.69 | 62 | 1015.0 |
| 20260504012955 | 20 | 270 | 0.0 | 3.2 | 0.00 | 0.69 | 0.69 | 62 | 1015.0 |
| 20260504012855 | 20 | 290 | 0.0 | 3.2 | 0.00 | 0.69 | 0.69 | 62 | 1015.0 |
| 20260504012725 | 20 | 298 | 0.0 | 1.6 | 0.00 | 0.69 | 0.69 | 62 | 1015.0 |
| 20260504012625 | 23 | 286 | 0.0 | 3.2 | 0.00 | 0.69 | 0.69 | 42 | 1020.4 |
| 20260504012525 | 23 | 289 | 1.6 | 1.6 | 0.00 | 0.69 | 0.69 | 42 | 1020.4 |
| 20260504012425 | 20 | 297 | 0.0 | 3.2 | 0.00 | 0.69 | 0.69 | 61 | 1015.0 |
| 20260504012325 | 20 | 292 | 1.6 | 1.6 | 0.00 | 0.69 | 0.69 | 61 | 1015.0 |
| 20260504012225 | 20 | 292 | 1.6 | 4.8 | 0.00 | 0.69 | 0.69 | 61 | 1015.0 |
| 20260504012125 | 23 | 272 | 1.6 | 3.2 | 0.00 | 0.69 | 0.69 | 42 | 1020.4 |
| 20260504012025 | 20 | 310 | 1.6 | 3.2 | 0.00 | 0.69 | 0.69 | 61 | 1014.9 |
| 20260504011925 | 23 | 303 | 1.6 | 4.8 | 0.00 | 0.69 | 0.69 | 42 | 1020.4 |
| 20260504011825 | 23 | 328 | 1.6 | 1.6 | 0.00 | 0.69 | 0.69 | 42 | 1020.4 |
| 20260504011725 | 20 | 331 | 1.6 | 3.2 | 0.00 | 0.69 | 0.69 | 60 | 1014.9 |
| 20260504011625 | 23 | 272 | 1.6 | 3.2 | 0.00 | 0.69 | 0.69 | 42 | 1020.4 |
| 20260504011525 | 20 | 304 | 0.0 | 3.2 | 0.00 | 0.69 | 0.69 | 60 | 1014.9 |
| 20260504011425 | 20 | 298 | 0.0 | 1.6 | 0.00 | 0.69 | 0.69 | 60 | 1014.9 |
| 20260504011325 | 23 | 272 | 1.6 | 3.2 | 0.00 | 0.69 | 0.69 | 42 | 1020.4 |
| 20260504011225 | 20 | 297 | 1.6 | 3.2 | 0.00 | 0.69 | 0.69 | 60 | 1014.9 |
| 20260504011125 | 23 | 294 | 0.0 | 8.0 | 0.00 | 0.69 | 0.69 | 42 | 1020.4 |
| 20260504011025 | 20 | 310 | 0.0 | 1.6 | 0.00 | 0.69 | 0.69 | 59 | 1014.9 |
| 20260504010925 | 23 | 331 | 1.6 | 1.6 | 0.00 | 0.69 | 0.69 | 42 | 1020.4 |
| 20260504010825 | 23 | 334 | 0.0 | 9.7 | 0.00 | 0.69 | 0.69 | 42 | 1020.4 |
| 20260504010725 | 20 | 9 | 0.0 | 0.0 | 0.00 | 0.69 | 0.69 | 59 | 1014.8 |
| 20260504010625 | 20 | 299 | 0.0 | 3.2 | 0.00 | 0.69 | 0.69 | 59 | 1014.8 |
| 20260504010525 | 20 | 226 | 1.6 | 3.2 | 0.00 | 0.69 | 0.69 | 59 | 1014.8 |
| 20260504010425 | 20 | 266 | 0.0 | 3.2 | 0.00 | 0.69 | 0.69 | 59 | 1014.8 |
| 20260504010325 | 23 | 209 | 0.0 | 0.0 | 0.00 | 0.69 | 0.69 | 42 | 1020.4 |
| 20260504010225 | 23 | 253 | 1.6 | 1.6 | 0.00 | 0.69 | 0.69 | 42 | 1020.4 |
| 20260504010125 | 23 | 315 | 1.6 | 4.8 | 0.00 | 0.69 | 0.69 | 42 | 1020.4 |
| 20260504010025 | 20 | 307 | 0.0 | 4.8 | 0.00 | 0.69 | 0.69 | 59 | 1014.8 |
| 20260504005925 | 20 | 298 | 1.6 | 3.2 | 0.00 | 0.69 | 0.69 | 58 | 1014.8 |
| 20260504005825 | 23 | 318 | 0.0 | 4.8 | 0.00 | 0.69 | 0.69 | 42 | 1020.4 |
| 20260504005725 | 23 | 232 | 0.0 | 1.6 | 0.00 | 0.69 | 0.69 | 42 | 1020.4 |
| 20260504005625 | 23 | 341 | 0.0 | 1.6 | 0.00 | 0.69 | 0.69 | 42 | 1020.4 |
| 20260504005525 | 20 | 324 | 0.0 | 1.6 | 0.00 | 0.69 | 0.69 | 58 | 1014.7 |
| 20260504005425 | 20 | 317 | 0.0 | 1.6 | 0.00 | 0.69 | 0.69 | 58 | 1014.7 |
| 20260504005325 | 20 | 334 | 1.6 | 3.2 | 0.00 | 0.69 | 0.69 | 58 | 1014.7 |
| 20260504005225 | 20 | 249 | 1.6 | 4.8 | 0.00 | 0.69 | 0.69 | 58 | 1014.7 |
| 20260504005055 | 20 | 299 | 1.6 | 9.7 | 0.00 | 0.69 | 0.69 | 58 | 1014.7 |
| 20260504004955 | 20 | 277 | 1.6 | 4.8 | 0.00 | 0.69 | 0.69 | 58 | 1014.7 |
| 20260504004855 | 23 | 235 | 0.0 | 3.2 | 0.00 | 0.69 | 0.69 | 42 | 1020.4 |
| 20260504004755 | 23 | 324 | 0.0 | 1.6 | 0.00 | 0.69 | 0.69 | 42 | 1020.4 |
| 20260504004625 | 23 | 349 | 1.6 | 3.2 | 0.00 | 0.69 | 0.69 | 42 | 1020.4 |
| 20260504004525 | 23 | 252 | 1.6 | 3.2 | 0.00 | 0.69 | 0.69 | 42 | 1020.4 |
| 20260504004355 | 20 | 182 | 0.0 | 4.8 | 0.00 | 0.69 | 0.69 | 56 | 1014.8 |
| 20260504004255 | 23 | 279 | 0.0 | 4.8 | 0.00 | 0.69 | 0.69 | 42 | 1020.4 |
| 20260504004155 | 23 | 308 | 1.6 | 1.6 | 0.00 | 0.69 | 0.69 | 42 | 1020.4 |
| 20260504004055 | 23 | 212 | 3.2 | 4.8 | 0.00 | 0.69 | 0.69 | 42 | 1020.4 |
| 20260504003955 | 21 | 291 | 1.6 | 4.8 | 0.00 | 0.69 | 0.69 | 56 | 1014.8 |
| 20260504003855 | 23 | 286 | 0.0 | 3.2 | 0.00 | 0.69 | 0.69 | 42 | 1020.4 |
| 20260504003755 | 21 | 289 | 0.0 | 1.6 | 0.00 | 0.69 | 0.69 | 56 | 1014.8 |
| 20260504003625 | 23 | 305 | 0.0 | 1.6 | 0.00 | 0.69 | 0.69 | 42 | 1020.4 |
| 20260504003525 | 23 | 326 | 0.0 | 1.6 | 0.00 | 0.69 | 0.69 | 42 | 1020.4 |
| 20260504003425 | 21 | 306 | 0.0 | 1.6 | 0.00 | 0.69 | 0.69 | 55 | 1014.8 |
| 20260504003255 | 21 | 222 | 1.6 | 4.8 | 0.00 | 0.69 | 0.69 | 55 | 1014.8 |
| 20260504003155 | 21 | 260 | 1.6 | 4.8 | 0.00 | 0.69 | 0.69 | 54 | 1014.8 |
| 20260504003055 | 21 | 301 | 1.6 | 3.2 | 0.00 | 0.69 | 0.69 | 54 | 1014.8 |
| 20260504002955 | 23 | 315 | 1.6 | 4.8 | 0.00 | 0.69 | 0.69 | 42 | 1020.4 |
| 20260504002825 | 21 | 302 | 1.6 | 4.8 | 0.00 | 0.69 | 0.69 | 54 | 1014.8 |
| 20260504002725 | 23 | 295 | 1.6 | 4.8 | 0.00 | 0.69 | 0.69 | 42 | 1020.4 |
| 20260504002625 | 23 | 312 | 1.6 | 4.8 | 0.00 | 0.69 | 0.69 | 42 | 1020.4 |
| 20260504002525 | 23 | 305 | 0.0 | 1.6 | 0.00 | 0.69 | 0.69 | 42 | 1020.4 |
| 20260504002425 | 21 | 247 | 0.0 | 1.6 | 0.00 | 0.69 | 0.69 | 55 | 1014.9 |
| 20260504002325 | 21 | 336 | 0.0 | 1.6 | 0.00 | 0.69 | 0.69 | 55 | 1014.9 |
| 20260504002225 | 21 | 324 | 0.0 | 1.6 | 0.00 | 0.69 | 0.69 | 55 | 1014.9 |
| 20260504002125 | 21 | 313 | 0.0 | 0.0 | 0.00 | 0.69 | 0.69 | 54 | 1014.9 |
| 20260504002025 | 21 | 313 | 0.0 | 0.0 | 0.00 | 0.69 | 0.69 | 54 | 1015.0 |
| 20260504001925 | 23 | 313 | 0.0 | 0.0 | 0.00 | 0.69 | 0.69 | 42 | 1020.4 |
| 20260504001825 | 21 | 314 | 1.6 | 1.6 | 0.00 | 0.69 | 0.69 | 54 | 1015.0 |
| 20260504001725 | 23 | 339 | 1.6 | 4.8 | 0.00 | 0.69 | 0.69 | 42 | 1020.4 |
| 20260504001555 | 23 | 299 | 1.6 | 4.8 | 0.00 | 0.69 | 0.69 | 42 | 1020.4 |
| 20260504001455 | 21 | 302 | 1.6 | 4.8 | 0.00 | 0.69 | 0.69 | 53 | 1015.0 |
| 20260504001355 | 21 | 295 | 1.6 | 4.8 | 0.00 | 0.69 | 0.69 | 54 | 1015.0 |
| 20260504001255 | 21 | 261 | 0.0 | 1.6 | 0.00 | 0.69 | 0.69 | 53 | 1015.0 |
| 20260504001155 | 23 | 304 | 1.6 | 1.6 | 0.00 | 0.69 | 0.69 | 42 | 1020.4 |
| 20260504001055 | 23 | 232 | 3.2 | 4.8 | 0.00 | 0.69 | 0.69 | 42 | 1020.4 |
| 20260504000955 | 23 | 302 | 1.6 | 9.7 | 0.00 | 0.69 | 0.69 | 42 | 1020.4 |
| 20260504000825 | 21 | 309 | 0.0 | 3.2 | 0.00 | 0.69 | 0.69 | 52 | 1015.0 |
| 20260504000725 | 21 | 299 | 1.6 | 3.2 | 0.00 | 0.69 | 0.69 | 52 | 1015.0 |
| 20260504000625 | 21 | 317 | 1.6 | 3.2 | 0.00 | 0.69 | 0.69 | 52 | 1015.0 |
| 20260504000525 | 23 | 189 | 3.2 | 4.8 | 0.00 | 0.69 | 0.69 | 42 | 1020.4 |
| 20260504000425 | 21 | 223 | 3.2 | 4.8 | 0.00 | 0.69 | 0.69 | 51 | 1015.0 |
| 20260504000325 | 22 | 295 | 3.2 | 8.0 | 0.00 | 0.69 | 0.69 | 51 | 1015.0 |
| 20260504000226 | 23 | 253 | 1.6 | 8.0 | 0.00 | 0.69 | 0.69 | 42 | 1020.4 |
| 20260504000125 | 22 | 337 | 0.0 | 3.2 | 0.00 | 0.69 | 0.69 | 50 | 1015.1 |
| 20260504000025 | 22 | 128 | 0.0 | 1.6 | 0.00 | 0.69 | 0.69 | 50 | 1015.0 |
| 20260503235925 | 23 | 145 | 1.6 | 3.2 | 0.00 | 0.69 | 0.69 | 42 | 1020.4 |
| 20260503235825 | 23 | 271 | 1.6 | 4.8 | 0.00 | 0.69 | 0.69 | 42 | 1020.4 |
| 20260503235725 | 22 | 196 | 1.6 | 3.2 | 0.00 | 0.69 | 0.69 | 49 | 1015.1 |
| 20260503235625 | 23 | 78 | 0.0 | 3.2 | 0.00 | 0.69 | 0.69 | 42 | 1020.4 |
| 20260503235525 | 23 | 274 | 1.6 | 3.2 | 0.00 | 0.69 | 0.69 | 42 | 1020.4 |
| 20260503235425 | 22 | 159 | 0.0 | 4.8 | 0.00 | 0.69 | 0.69 | 48 | 1015.1 |
| 20260503235325 | 23 | 308 | 3.2 | 4.8 | 0.00 | 0.69 | 0.69 | 42 | 1020.4 |
| 20260503235225 | 22 | 293 | 1.6 | 4.8 | 0.00 | 0.69 | 0.69 | 47 | 1015.1 |
| 20260503235125 | 22 | 259 | 0.0 | 3.2 | 0.00 | 0.69 | 0.69 | 47 | 1015.1 |
| 20260503235025 | 23 | 305 | 1.6 | 0.0 | 0.00 | 0.69 | 0.69 | 42 | 1020.4 |
| 20260503234925 | 22 | 315 | 0.0 | 4.8 | 0.00 | 0.69 | 0.69 | 48 | 1015.1 |
| 20260503234825 | 22 | 285 | 0.0 | 3.2 | 0.00 | 0.69 | 0.69 | 47 | 1015.1 |
| 20260503234725 | 23 | 344 | 0.0 | 1.6 | 0.00 | 0.69 | 0.69 | 42 | 1020.4 |
| 20260503234625 | 23 | 243 | 1.6 | 1.6 | 0.00 | 0.69 | 0.69 | 42 | 1020.4 |
| 20260503234525 | 23 | 319 | 3.2 | 3.2 | 0.00 | 0.69 | 0.69 | 47 | 1015.1 |
| 20260503234425 | 23 | 276 | 1.6 | 4.8 | 0.00 | 0.69 | 0.69 | 42 | 1020.4 |
| 20260503234325 | 23 | 185 | 0.0 | 4.8 | 0.00 | 0.69 | 0.69 | 42 | 1020.4 |
| 20260503234225 | 23 | 304 | 1.6 | 1.6 | 0.00 | 0.69 | 0.69 | 47 | 1015.1 |
| 20260503234125 | 23 | 5 | 0.0 | 3.2 | 0.00 | 0.69 | 0.69 | 42 | 1020.4 |
| 20260503234025 | 23 | 135 | 1.6 | 1.6 | 0.00 | 0.69 | 0.69 | 42 | 1020.4 |
| 20260503233925 | 23 | 138 | 3.2 | 4.8 | 0.00 | 0.69 | 0.69 | 46 | 1015.2 |
| 20260503233825 | 23 | 312 | 1.6 | 4.8 | 0.00 | 0.69 | 0.69 | 42 | 1020.4 |
| 20260503233725 | 23 | 303 | 1.6 | 4.8 | 0.00 | 0.69 | 0.69 | 47 | 1015.1 |
| 20260503233625 | 23 | 176 | 1.6 | 3.2 | 0.00 | 0.69 | 0.69 | 42 | 1020.4 |
| 20260503233525 | 23 | 175 | 0.0 | 3.2 | 0.00 | 0.69 | 0.69 | 42 | 1020.4 |
| 20260503233425 | 23 | 172 | 1.6 | 3.2 | 0.00 | 0.69 | 0.69 | 46 | 1015.1 |
| 20260503233325 | 23 | 172 | 1.6 | 3.2 | 0.00 | 0.69 | 0.69 | 45 | 1015.1 |
| 20260503233225 | 23 | 177 | 0.0 | 3.2 | 0.00 | 0.69 | 0.69 | 42 | 1020.4 |
| 20260503233125 | 23 | 158 | 3.2 | 3.2 | 0.00 | 0.69 | 0.69 | 42 | 1020.4 |
| 20260503233025 | 23 | 189 | 1.6 | 8.0 | 0.00 | 0.69 | 0.69 | 42 | 1020.4 |
| 20260503232925 | 23 | 314 | 3.2 | 4.8 | 0.00 | 0.69 | 0.69 | 42 | 1020.4 |
| 20260503232825 | 24 | 336 | 1.6 | 4.8 | 0.00 | 0.69 | 0.69 | 44 | 1015.2 |
| 20260503232725 | 24 | 281 | 1.6 | 4.8 | 0.00 | 0.69 | 0.69 | 43 | 1015.2 |
| 20260503232625 | 23 | 264 | 1.6 | 4.8 | 0.00 | 0.69 | 0.69 | 42 | 1020.4 |
| 20260503232455 | 23 | 253 | 0.0 | 3.2 | 0.00 | 0.69 | 0.69 | 42 | 1020.4 |
| 20260503232355 | 25 | 278 | 0.0 | 3.2 | 0.00 | 0.69 | 0.69 | 40 | 1015.2 |
| 20260503232255 | 23 | 270 | 1.6 | 1.6 | 0.00 | 0.69 | 0.69 | 42 | 1020.4 |
| 20260503232155 | 23 | 224 | 1.6 | 4.8 | 0.00 | 0.69 | 0.69 | 42 | 1020.4 |
| 20260503232055 | 25 | 333 | 0.0 | 3.2 | 0.00 | 0.69 | 0.69 | 43 | 1015.2 |
| 20260503231955 | 23 | 162 | 1.6 | 0.0 | 0.00 | 0.69 | 0.69 | 42 | 1020.4 |
| 20260503231855 | 23 | 147 | 1.6 | 4.8 | 0.00 | 0.69 | 0.69 | 42 | 1020.4 |
| 20260503231755 | 25 | 134 | 0.0 | 4.8 | 0.00 | 0.69 | 0.69 | 41 | 1015.2 |
| 20260503231655 | 25 | 25 | 0.0 | 0.0 | 0.00 | 0.69 | 0.69 | 40 | 1015.2 |
| 20260503231555 | 23 | 16 | 0.0 | 1.6 | 0.00 | 0.69 | 0.69 | 42 | 1020.4 |
| 20260503231455 | 25 | 11 | 3.2 | 3.2 | 0.00 | 0.69 | 0.69 | 36 | 1015.3 |
| 20260503231355 | 25 | 328 | 1.6 | 12.9 | 0.00 | 0.69 | 0.69 | 34 | 1015.3 |
| 20260503231255 | 25 | 236 | 3.2 | 3.2 | 0.00 | 0.69 | 0.69 | 34 | 1015.3 |
| 20260503231155 | 25 | 238 | 4.8 | 8.0 | 0.00 | 0.69 | 0.69 | 33 | 1015.1 |
| 20260503231055 | 23 | 244 | 3.2 | 8.0 | 0.00 | 0.69 | 0.69 | 42 | 1020.4 |
| 20260503230955 | 23 | 254 | 3.2 | 8.0 | 0.00 | 0.69 | 0.69 | 42 | 1020.4 |
| 20260503230855 | 25 | 189 | 3.2 | 4.8 | 0.00 | 0.69 | 0.69 | 35 | 1015.1 |
| 20260503230755 | 23 | 199 | 1.6 | 8.0 | 0.00 | 0.69 | 0.69 | 42 | 1020.4 |
| 20260503230655 | 23 | 230 | 1.6 | 4.8 | 0.00 | 0.69 | 0.69 | 42 | 1020.4 |
| 20260503230555 | 23 | 211 | 1.6 | 3.2 | 0.00 | 0.69 | 0.69 | 42 | 1020.4 |
| 20260503230455 | 25 | 192 | 1.6 | 4.8 | 0.00 | 0.69 | 0.69 | 34 | 1015.2 |
| 20260503230355 | 23 | 238 | 1.6 | 3.2 | 0.00 | 0.69 | 0.69 | 42 | 1020.4 |
| 20260503230255 | 23 | 144 | 1.6 | 3.2 | 0.00 | 0.69 | 0.69 | 42 | 1020.4 |
| 20260503230155 | 26 | 94 | 3.2 | 4.8 | 0.00 | 0.69 | 0.69 | 36 | 1015.1 |
| 20260503230055 | 23 | 172 | 1.6 | 8.0 | 0.00 | 0.69 | 0.69 | 42 | 1020.4 |
| 20260503225955 | 26 | 83 | 3.2 | 4.8 | 0.00 | 0.69 | 0.69 | 34 | 1015.4 |
| 20260503225855 | 26 | 79 | 0.0 | 4.8 | 0.00 | 0.69 | 0.69 | 35 | 1015.2 |
| 20260503225755 | 26 | 327 | 1.6 | 3.2 | 0.00 | 0.69 | 0.69 | 36 | 1015.3 |
| 20260503225655 | 23 | 59 | 0.0 | 3.2 | 0.00 | 0.69 | 0.69 | 42 | 1020.4 |
| 20260503225555 | 26 | 139 | 1.6 | 0.0 | 0.00 | 0.69 | 0.69 | 36 | 1015.3 |
| 20260503225455 | 23 | 141 | 1.6 | 4.8 | 0.00 | 0.69 | 0.69 | 42 | 1020.4 |
| 20260503225355 | 26 | 179 | 1.6 | 4.8 | 0.00 | 0.69 | 0.69 | 36 | 1015.3 |
| 20260503225255 | 26 | 186 | 1.6 | 3.2 | 0.00 | 0.69 | 0.69 | 38 | 1015.2 |
| 20260503225155 | 25 | 160 | 0.0 | 4.8 | 0.00 | 0.69 | 0.69 | 39 | 1015.3 |
| 20260503225025 | 23 | 336 | 0.0 | 1.6 | 0.00 | 0.69 | 0.69 | 42 | 1020.4 |
| 20260503224925 | 25 | 338 | 0.0 | 1.6 | 0.00 | 0.69 | 0.69 | 40 | 1015.2 |
| 20260503224825 | 25 | 63 | 0.0 | 1.6 | 0.00 | 0.69 | 0.69 | 40 | 1015.2 |
| 20260503224725 | 23 | 87 | 0.0 | 0.0 | 0.00 | 0.69 | 0.69 | 42 | 1020.4 |
| 20260503224625 | 25 | 89 | 1.6 | 3.2 | 0.00 | 0.69 | 0.69 | 40 | 1015.3 |
| 20260503224455 | 25 | 224 | 0.0 | 3.2 | 0.00 | 0.69 | 0.69 | 40 | 1015.2 |
| 20260503224355 | 25 | 246 | 0.0 | 3.2 | 0.00 | 0.69 | 0.69 | 41 | 1015.2 |
| 20260503224255 | 25 | 197 | 0.0 | 1.6 | 0.00 | 0.69 | 0.69 | 41 | 1015.1 |
| 20260503224155 | 25 | 328 | 1.6 | 1.6 | 0.00 | 0.69 | 0.69 | 41 | 1015.1 |
| 20260503224055 | 23 | 9 | 1.6 | 3.2 | 0.00 | 0.69 | 0.69 | 42 | 1020.4 |
| 20260503223955 | 25 | 357 | 3.2 | 3.2 | 0.00 | 0.69 | 0.69 | 41 | 1015.1 |
| 20260503223855 | 23 | 316 | 3.2 | 12.9 | 0.00 | 0.69 | 0.69 | 42 | 1020.4 |
| 20260503223755 | 25 | 357 | 1.6 | 12.9 | 0.00 | 0.69 | 0.69 | 42 | 1015.1 |
| 20260503223654 | 23 | 128 | 3.2 | 8.0 | 0.00 | 0.69 | 0.69 | 42 | 1020.4 |
| 20260503223555 | 23 | 66 | 3.2 | 4.8 | 0.00 | 0.69 | 0.69 | 42 | 1020.4 |
| 20260503223455 | 23 | 58 | 3.2 | 4.8 | 0.00 | 0.69 | 0.69 | 42 | 1020.4 |
| 20260503223354 | 23 | 60 | 1.6 | 4.8 | 0.00 | 0.69 | 0.69 | 42 | 1020.4 |
| 20260503223254 | 26 | 49 | 0.0 | 3.2 | 0.00 | 0.69 | 0.69 | 39 | 1015.1 |
| 20260503223125 | 26 | 343 | 1.6 | 1.6 | 0.00 | 0.69 | 0.69 | 39 | 1015.1 |
| 20260503223025 | 23 | 351 | 0.0 | 3.2 | 0.00 | 0.69 | 0.69 | 42 | 1020.4 |
| 20260503222855 | 23 | 348 | 1.6 | 1.6 | 0.00 | 0.69 | 0.69 | 42 | 1020.4 |
| 20260503222755 | 23 | 52 | 1.6 | 4.8 | 0.00 | 0.69 | 0.69 | 42 | 1020.4 |
| 20260503222655 | 26 | 250 | 1.6 | 4.8 | 0.00 | 0.69 | 0.69 | 40 | 1015.2 |
| 20260503222554 | 26 | 105 | 1.6 | 3.2 | 0.00 | 0.69 | 0.69 | 38 | 1015.2 |
| 20260503222425 | 23 | 75 | 1.6 | 4.8 | 0.00 | 0.69 | 0.69 | 42 | 1020.4 |
| 20260503222325 | 27 | 29 | 0.0 | 9.7 | 0.00 | 0.69 | 0.69 | 33 | 1015.2 |
| 20260503222224 | 23 | 344 | 0.0 | 1.6 | 0.00 | 0.69 | 0.69 | 42 | 1020.4 |
| 20260503222125 | 27 | 358 | 0.0 | 1.6 | 0.00 | 0.69 | 0.69 | 33 | 1015.1 |
| 20260503222024 | 23 | 69 | 1.6 | 3.2 | 0.00 | 0.69 | 0.69 | 42 | 1020.4 |
| 20260503221924 | 27 | 69 | 0.0 | 4.8 | 0.00 | 0.69 | 0.69 | 34 | 1015.2 |
| 20260503221824 | 23 | 65 | 0.0 | 1.6 | 0.00 | 0.69 | 0.69 | 42 | 1020.4 |
| 20260503221724 | 27 | 53 | 0.0 | 0.0 | 0.00 | 0.69 | 0.69 | 33 | 1015.2 |
| 20260503221624 | 23 | 61 | 1.6 | 1.6 | 0.00 | 0.69 | 0.69 | 42 | 1020.4 |
| 20260503221524 | 23 | 60 | 1.6 | 4.8 | 0.00 | 0.69 | 0.69 | 42 | 1020.4 |
| 20260503221424 | 27 | 212 | 1.6 | 3.2 | 0.00 | 0.69 | 0.69 | 34 | 1015.1 |
| 20260503221324 | 23 | 304 | 1.6 | 4.8 | 0.00 | 0.69 | 0.69 | 42 | 1020.4 |
| 20260503221224 | 27 | 27 | 1.6 | 4.8 | 0.00 | 0.69 | 0.69 | 33 | 1015.2 |
| 20260503221124 | 23 | 309 | 0.0 | 3.2 | 0.00 | 0.69 | 0.69 | 42 | 1020.4 |
| 20260503221024 | 23 | 278 | 0.0 | 1.6 | 0.00 | 0.69 | 0.69 | 42 | 1020.4 |
| 20260503220924 | 23 | 21 | 0.0 | 3.2 | 0.00 | 0.69 | 0.69 | 42 | 1020.4 |
| 20260503220824 | 27 | 108 | 0.0 | 3.2 | 0.00 | 0.69 | 0.69 | 34 | 1015.2 |
| 20260503220724 | 23 | 58 | 0.0 | 1.6 | 0.00 | 0.69 | 0.69 | 42 | 1020.4 |
| 20260503220624 | 27 | 348 | 0.0 | 3.2 | 0.00 | 0.69 | 0.69 | 34 | 1015.3 |
| 20260503220524 | 27 | 273 | 1.6 | 1.6 | 0.00 | 0.69 | 0.69 | 34 | 1015.3 |
| 20260503220424 | 23 | 320 | 0.0 | 4.8 | 0.00 | 0.69 | 0.69 | 42 | 1020.4 |
| 20260503220324 | 27 | 7 | 1.6 | 3.2 | 0.00 | 0.69 | 0.69 | 34 | 1015.3 |
| 20260503220224 | 23 | 7 | 1.6 | 3.2 | 0.00 | 0.69 | 0.69 | 42 | 1020.4 |
| 20260503220124 | 23 | 288 | 1.6 | 4.8 | 0.00 | 0.69 | 0.69 | 42 | 1020.4 |
| 20260503220024 | 27 | 209 | 1.6 | 3.2 | 0.00 | 0.69 | 0.69 | 34 | 1015.3 |
| 20260503215924 | 27 | 250 | 1.6 | 3.2 | 0.00 | 0.69 | 0.69 | 35 | 1015.3 |
| 20260503215754 | 27 | 262 | 1.6 | 0.0 | 0.00 | 0.69 | 0.69 | 34 | 1015.3 |
| 20260503215654 | 23 | 279 | 0.0 | 3.2 | 0.00 | 0.69 | 0.69 | 42 | 1020.4 |
| 20260503215554 | 27 | 294 | 0.0 | 1.6 | 0.00 | 0.69 | 0.69 | 34 | 1015.3 |
| 20260503215454 | 27 | 339 | 1.6 | 0.0 | 0.00 | 0.69 | 0.69 | 34 | 1015.4 |
| 20260503215354 | 23 | 310 | 0.0 | 4.8 | 0.00 | 0.69 | 0.69 | 42 | 1020.4 |
| 20260503215254 | 27 | 270 | 1.6 | 1.6 | 0.00 | 0.69 | 0.69 | 36 | 1015.4 |
| 20260503215154 | 23 | 344 | 0.0 | 3.2 | 0.00 | 0.69 | 0.69 | 42 | 1020.4 |
| 20260503215024 | 26 | 276 | 0.0 | 1.6 | 0.00 | 0.69 | 0.69 | 34 | 1015.4 |
| 20260503214924 | 23 | 154 | 1.6 | 3.2 | 0.00 | 0.69 | 0.69 | 42 | 1020.4 |
| 20260503214824 | 23 | 281 | 1.6 | 3.2 | 0.00 | 0.69 | 0.69 | 42 | 1020.4 |
| 20260503214724 | 26 | 309 | 3.2 | 4.8 | 0.00 | 0.69 | 0.69 | 34 | 1015.4 |
| 20260503214624 | 26 | 346 | 1.6 | 4.8 | 0.00 | 0.69 | 0.69 | 35 | 1015.4 |
| 20260503214524 | 26 | 330 | 3.2 | 3.2 | 0.00 | 0.69 | 0.69 | 34 | 1015.4 |
| 20260503214424 | 26 | 312 | 1.6 | 4.8 | 0.00 | 0.69 | 0.69 | 34 | 1015.4 |
| 20260503214254 | 27 | 267 | 3.2 | 4.8 | 0.00 | 0.69 | 0.69 | 34 | 1015.5 |
| 20260503214154 | 23 | 305 | 1.6 | 4.8 | 0.00 | 0.69 | 0.69 | 42 | 1020.4 |
| 20260503214054 | 26 | 267 | 1.6 | 4.8 | 0.00 | 0.69 | 0.69 | 34 | 1015.4 |
| 20260503213955 | 23 | 334 | 0.0 | 3.2 | 0.00 | 0.69 | 0.69 | 42 | 1020.4 |
| 20260503213854 | 23 | 238 | 1.6 | 0.0 | 0.00 | 0.69 | 0.69 | 42 | 1020.4 |
| 20260503213754 | 23 | 218 | 1.6 | 4.8 | 0.00 | 0.69 | 0.69 | 42 | 1020.4 |
| 20260503213624 | 23 | 188 | 0.0 | 4.8 | 0.00 | 0.69 | 0.69 | 42 | 1020.4 |
| 20260503213524 | 26 | 29 | 0.0 | 3.2 | 0.00 | 0.69 | 0.69 | 35 | 1015.5 |
| 20260503213424 | 26 | 23 | 1.6 | 3.2 | 0.00 | 0.69 | 0.69 | 34 | 1015.4 |
| 20260503213324 | 26 | 65 | 3.2 | 3.2 | 0.00 | 0.69 | 0.69 | 34 | 1015.5 |
| 20260503213224 | 23 | 282 | 3.2 | 8.0 | 0.00 | 0.69 | 0.69 | 42 | 1020.4 |
| 20260503213124 | 23 | 270 | 3.2 | 4.8 | 0.00 | 0.69 | 0.69 | 42 | 1020.4 |
| 20260503213024 | 27 | 262 | 1.6 | 4.8 | 0.00 | 0.69 | 0.69 | 34 | 1015.5 |
| 20260503212924 | 23 | 272 | 1.6 | 4.8 | 0.00 | 0.69 | 0.69 | 42 | 1020.4 |
| 20260503212824 | 23 | 292 | 3.2 | 3.2 | 0.00 | 0.69 | 0.69 | 42 | 1020.4 |
| 20260503212724 | 27 | 273 | 1.6 | 8.0 | 0.00 | 0.69 | 0.69 | 34 | 1015.5 |
| 20260503212624 | 23 | 295 | 0.0 | 4.8 | 0.00 | 0.69 | 0.69 | 42 | 1020.4 |
| 20260503212524 | 26 | 320 | 1.6 | 3.2 | 0.00 | 0.69 | 0.69 | 34 | 1015.6 |
| 20260503212424 | 23 | 324 | 1.6 | 3.2 | 0.00 | 0.69 | 0.69 | 42 | 1020.4 |
| 20260503212324 | 27 | 212 | 1.6 | 9.7 | 0.00 | 0.69 | 0.69 | 34 | 1015.5 |
| 20260503212154 | 26 | 321 | 1.6 | 4.8 | 0.00 | 0.69 | 0.69 | 35 | 1015.6 |
| 20260503212054 | 26 | 353 | 1.6 | 4.8 | 0.00 | 0.69 | 0.69 | 35 | 1015.6 |
| 20260503211954 | 27 | 278 | 1.6 | 3.2 | 0.00 | 0.69 | 0.69 | 34 | 1015.6 |
| 20260503211854 | 27 | 253 | 1.6 | 3.2 | 0.00 | 0.69 | 0.69 | 33 | 1015.6 |
| 20260503211754 | 23 | 250 | 1.6 | 3.2 | 0.00 | 0.69 | 0.69 | 42 | 1020.4 |
| 20260503211654 | 27 | 228 | 1.6 | 4.8 | 0.00 | 0.69 | 0.69 | 34 | 1015.7 |
| 20260503211554 | 23 | 356 | 3.2 | 4.8 | 0.00 | 0.69 | 0.69 | 42 | 1020.4 |
| 20260503211454 | 23 | 287 | 3.2 | 8.0 | 0.00 | 0.69 | 0.69 | 42 | 1020.4 |
| 20260503211354 | 27 | 258 | 3.2 | 8.0 | 0.00 | 0.69 | 0.69 | 33 | 1015.7 |
| 20260503211224 | 23 | 294 | 3.2 | 4.8 | 0.00 | 0.69 | 0.69 | 42 | 1020.4 |
| 20260503211054 | 27 | 311 | 1.6 | 3.2 | 0.00 | 0.69 | 0.69 | 34 | 1015.7 |
| 20260503210954 | 23 | 336 | 1.6 | 3.2 | 0.00 | 0.69 | 0.69 | 42 | 1020.4 |
| 20260503210824 | 27 | 278 | 0.0 | 3.2 | 0.00 | 0.69 | 0.69 | 34 | 1015.7 |
| 20260503210724 | 27 | 346 | 0.0 | 3.2 | 0.00 | 0.69 | 0.69 | 33 | 1015.7 |
| 20260503210624 | 27 | 235 | 1.6 | 1.6 | 0.00 | 0.69 | 0.69 | 32 | 1015.6 |
| 20260503210454 | 27 | 351 | 1.6 | 4.8 | 0.00 | 0.69 | 0.69 | 32 | 1015.7 |
| 20260503210324 | 27 | 49 | 1.6 | 4.8 | 0.00 | 0.69 | 0.69 | 33 | 1015.8 |
| 20260503210154 | 23 | 338 | 0.0 | 3.2 | 0.00 | 0.69 | 0.69 | 42 | 1020.4 |
| 20260503210054 | 26 | 322 | 1.6 | 3.2 | 0.00 | 0.69 | 0.69 | 34 | 1015.8 |
| 20260503205954 | 23 | 325 | 0.0 | 4.8 | 0.00 | 0.69 | 0.69 | 42 | 1020.4 |
| 20260503205824 | 23 | 317 | 1.6 | 1.6 | 0.00 | 0.69 | 0.69 | 42 | 1020.4 |
| 20260503205724 | 23 | 151 | 1.6 | 4.8 | 0.00 | 0.69 | 0.69 | 42 | 1020.4 |
| 20260503205624 | 26 | 289 | 1.6 | 4.8 | 0.00 | 0.69 | 0.69 | 33 | 1015.7 |
| 20260503205524 | 27 | 306 | 1.6 | 3.2 | 0.00 | 0.69 | 0.69 | 33 | 1015.8 |
| 20260503205424 | 23 | 261 | 3.2 | 4.8 | 0.00 | 0.69 | 0.69 | 42 | 1020.4 |
| 20260503205324 | 23 | 281 | 3.2 | 4.8 | 0.00 | 0.69 | 0.69 | 42 | 1020.4 |
| 20260503205224 | 27 | 284 | 1.6 | 4.8 | 0.00 | 0.69 | 0.69 | 33 | 1015.9 |
| 20260503205124 | 23 | 280 | 3.2 | 8.0 | 0.00 | 0.69 | 0.69 | 42 | 1020.4 |
| 20260503205024 | 23 | 310 | 1.6 | 8.0 | 0.00 | 0.69 | 0.69 | 42 | 1020.4 |
| 20260503204924 | 27 | 342 | 1.6 | 4.8 | 0.00 | 0.69 | 0.69 | 34 | 1015.9 |
| 20260503204824 | 23 | 303 | 1.6 | 4.8 | 0.00 | 0.69 | 0.69 | 42 | 1020.4 |
| 20260503204724 | 27 | 344 | 1.6 | 3.2 | 0.00 | 0.69 | 0.69 | 34 | 1015.9 |
| 20260503204624 | 23 | 322 | 0.0 | 4.8 | 0.00 | 0.69 | 0.69 | 42 | 1020.4 |
| 20260503204524 | 23 | 96 | 1.6 | 1.6 | 0.00 | 0.69 | 0.69 | 42 | 1020.4 |
| 20260503204424 | 23 | 270 | 1.6 | 1.6 | 0.00 | 0.69 | 0.69 | 42 | 1020.4 |
| 20260503204324 | 27 | 270 | 1.6 | 4.8 | 0.00 | 0.69 | 0.69 | 34 | 1015.9 |
| 20260503204224 | 23 | 295 | 1.6 | 3.2 | 0.00 | 0.69 | 0.69 | 42 | 1020.4 |
| 20260503204124 | 27 | 158 | 3.2 | 8.0 | 0.00 | 0.69 | 0.69 | 33 | 1016.0 |
| 20260503204024 | 23 | 16 | 3.2 | 4.8 | 0.00 | 0.69 | 0.69 | 42 | 1020.4 |
| 20260503203924 | 23 | 43 | 1.6 | 8.0 | 0.00 | 0.69 | 0.69 | 42 | 1020.4 |
| 20260503203824 | 23 | 7 | 1.6 | 3.2 | 0.00 | 0.69 | 0.69 | 42 | 1020.4 |
| 20260503203724 | 23 | 7 | 0.0 | 3.2 | 0.00 | 0.69 | 0.69 | 42 | 1020.4 |
| 20260503203624 | 23 | 329 | 1.6 | 3.2 | 0.00 | 0.69 | 0.69 | 42 | 1020.4 |
| 20260503203524 | 27 | 265 | 0.0 | 3.2 | 0.00 | 0.69 | 0.69 | 34 | 1016.1 |
| 20260503203424 | 27 | 334 | 0.0 | 3.2 | 0.00 | 0.69 | 0.69 | 34 | 1016.0 |
| 20260503203324 | 27 | 301 | 1.6 | 1.6 | 0.00 | 0.69 | 0.69 | 36 | 1016.0 |
| 20260503203224 | 26 | 347 | 0.0 | 4.8 | 0.00 | 0.69 | 0.69 | 36 | 1016.2 |
| 20260503203124 | 23 | 337 | 1.6 | 1.6 | 0.00 | 0.69 | 0.69 | 42 | 1020.4 |
| 20260503203024 | 23 | 274 | 1.6 | 3.2 | 0.00 | 0.69 | 0.69 | 42 | 1020.4 |
| 20260503202924 | 23 | 304 | 1.6 | 3.2 | 0.00 | 0.69 | 0.69 | 42 | 1020.4 |
| 20260503202824 | 26 | 324 | 1.6 | 3.2 | 0.00 | 0.69 | 0.69 | 36 | 1016.1 |
| 20260503202724 | 23 | 159 | 0.0 | 4.8 | 0.00 | 0.69 | 0.69 | 42 | 1020.4 |
| 20260503202624 | 26 | 61 | 1.6 | 3.2 | 0.00 | 0.69 | 0.69 | 35 | 1016.1 |
| 20260503202524 | 26 | 2 | 1.6 | 4.8 | 0.00 | 0.69 | 0.69 | 35 | 1016.1 |
| 20260503202424 | 23 | 336 | 1.6 | 3.2 | 0.00 | 0.69 | 0.69 | 42 | 1020.4 |
| 20260503202324 | 23 | 13 | 1.6 | 4.8 | 0.00 | 0.69 | 0.69 | 42 | 1020.4 |
| 20260503202224 | 26 | 39 | 1.6 | 4.8 | 0.00 | 0.69 | 0.69 | 36 | 1016.1 |
| 20260503202124 | 26 | 357 | 1.6 | 3.2 | 0.00 | 0.69 | 0.69 | 34 | 1016.2 |
| 20260503202024 | 26 | 293 | 1.6 | 8.0 | 0.00 | 0.69 | 0.69 | 33 | 1016.3 |
| 20260503201924 | 23 | 265 | 1.6 | 4.8 | 0.00 | 0.69 | 0.69 | 42 | 1020.4 |
| 20260503201754 | 26 | 337 | 1.6 | 3.2 | 0.00 | 0.69 | 0.69 | 34 | 1016.2 |
| 20260503201654 | 26 | 321 | 1.6 | 3.2 | 0.00 | 0.69 | 0.69 | 34 | 1016.3 |
| 20260503201554 | 23 | 329 | 0.0 | 3.2 | 0.00 | 0.69 | 0.69 | 42 | 1020.4 |
| 20260503201454 | 23 | 295 | 1.6 | 1.6 | 0.00 | 0.69 | 0.69 | 42 | 1020.4 |
| 20260503201354 | 23 | 354 | 1.6 | 3.2 | 0.00 | 0.69 | 0.69 | 42 | 1020.4 |
| 20260503201254 | 23 | 332 | 3.2 | 3.2 | 0.00 | 0.69 | 0.69 | 42 | 1020.4 |
| 20260503201154 | 26 | 307 | 3.2 | 8.0 | 0.00 | 0.69 | 0.69 | 35 | 1016.3 |
| 20260503201054 | 26 | 316 | 1.6 | 4.8 | 0.00 | 0.69 | 0.69 | 36 | 1016.3 |
| 20260503200954 | 26 | 333 | 1.6 | 3.2 | 0.00 | 0.69 | 0.69 | 36 | 1016.3 |
| 20260503200854 | 23 | 296 | 3.2 | 3.2 | 0.00 | 0.69 | 0.69 | 42 | 1020.4 |
| 20260503200754 | 23 | 262 | 3.2 | 8.0 | 0.00 | 0.69 | 0.69 | 42 | 1020.4 |
| 20260503200624 | 26 | 25 | 3.2 | 11.3 | 0.00 | 0.69 | 0.69 | 34 | 1016.3 |
| 20260503200524 | 23 | 25 | 1.6 | 4.8 | 0.00 | 0.69 | 0.69 | 42 | 1020.4 |
| 20260503200424 | 26 | 51 | 0.0 | 8.0 | 0.00 | 0.69 | 0.69 | 37 | 1016.3 |
| 20260503200324 | 26 | 337 | 0.0 | 3.2 | 0.00 | 0.69 | 0.69 | 37 | 1016.4 |
| 20260503200224 | 26 | 315 | 1.6 | 1.6 | 0.00 | 0.69 | 0.69 | 35 | 1016.3 |
| 20260503200124 | 23 | 286 | 0.0 | 3.2 | 0.00 | 0.69 | 0.69 | 42 | 1020.4 |
| 20260503200024 | 26 | 281 | 1.6 | 3.2 | 0.00 | 0.69 | 0.69 | 36 | 1016.4 |
| 20260503195854 | 26 | 45 | 3.2 | 9.7 | 0.00 | 0.69 | 0.69 | 37 | 1016.4 |
| 20260503195754 | 26 | 68 | 1.6 | 9.7 | 0.00 | 0.69 | 0.69 | 36 | 1016.5 |
| 20260503195654 | 23 | 7 | 1.6 | 3.2 | 0.00 | 0.69 | 0.69 | 42 | 1020.4 |
| 20260503195554 | 26 | 322 | 0.0 | 1.6 | 0.00 | 0.69 | 0.69 | 37 | 1016.5 |
| 20260503195454 | 26 | 106 | 1.6 | 1.6 | 0.00 | 0.69 | 0.69 | 34 | 1016.6 |
| 20260503195354 | 26 | 90 | 1.6 | 4.8 | 0.00 | 0.69 | 0.69 | 35 | 1016.5 |
| 20260503195254 | 23 | 36 | 1.6 | 8.0 | 0.00 | 0.69 | 0.69 | 42 | 1020.4 |
| 20260503195154 | 23 | 356 | 3.2 | 3.2 | 0.00 | 0.69 | 0.69 | 42 | 1020.4 |
| 20260503195054 | 23 | 23 | 3.2 | 11.3 | 0.00 | 0.69 | 0.69 | 42 | 1020.4 |
| 20260503194954 | 26 | 23 | 3.2 | 4.8 | 0.00 | 0.69 | 0.69 | 34 | 1016.7 |
| 20260503194854 | 26 | 235 | 1.6 | 4.8 | 0.00 | 0.69 | 0.69 | 35 | 1016.7 |
| 20260503194754 | 23 | 307 | 0.0 | 4.8 | 0.00 | 0.69 | 0.69 | 42 | 1020.4 |
| 20260503194654 | 26 | 349 | 1.6 | 1.6 | 0.00 | 0.69 | 0.69 | 35 | 1016.7 |
| 20260503194554 | 26 | 4 | 1.6 | 3.2 | 0.00 | 0.69 | 0.69 | 36 | 1016.7 |
| 20260503194454 | 23 | 73 | 1.6 | 9.7 | 0.00 | 0.69 | 0.69 | 42 | 1020.4 |
| 20260503194354 | 23 | 79 | 0.0 | 3.2 | 0.00 | 0.69 | 0.69 | 42 | 1020.4 |
| 20260503194254 | 23 | 223 | 3.2 | 3.2 | 0.00 | 0.69 | 0.69 | 42 | 1020.4 |
| 20260503194154 | 26 | 257 | 3.2 | 4.8 | 0.00 | 0.69 | 0.69 | 34 | 1016.9 |
| 20260503194054 | 26 | 266 | 1.6 | 8.0 | 0.00 | 0.69 | 0.69 | 34 | 1017.0 |
| 20260503193954 | 23 | 353 | 1.6 | 3.2 | 0.00 | 0.69 | 0.69 | 42 | 1020.4 |
| 20260503193854 | 26 | 326 | 1.6 | 4.8 | 0.00 | 0.69 | 0.69 | 36 | 1017.0 |
| 20260503193754 | 23 | 217 | 1.6 | 4.8 | 0.00 | 0.69 | 0.69 | 42 | 1020.4 |
| 20260503193624 | 23 | 301 | 1.6 | 3.2 | 0.00 | 0.69 | 0.69 | 42 | 1020.4 |
| 20260503193524 | 23 | 20 | 1.6 | 3.2 | 0.00 | 0.69 | 0.69 | 42 | 1020.4 |
| 20260503193424 | 26 | 33 | 0.0 | 3.2 | 0.00 | 0.69 | 0.69 | 38 | 1017.1 |
| 20260503193324 | 23 | 349 | 1.6 | 4.8 | 0.00 | 0.69 | 0.69 | 42 | 1020.4 |
| 20260503193224 | 25 | 121 | 1.6 | 8.0 | 0.00 | 0.69 | 0.69 | 38 | 1017.0 |
| 20260503193124 | 25 | 239 | 1.6 | 3.2 | 0.00 | 0.69 | 0.69 | 36 | 1017.2 |
| 20260503193024 | 25 | 148 | 1.6 | 9.7 | 0.00 | 0.69 | 0.69 | 36 | 1017.1 |
| 20260503192924 | 23 | 46 | 1.6 | 3.2 | 0.00 | 0.69 | 0.69 | 42 | 1020.4 |
| 20260503192824 | 25 | 70 | 1.6 | 4.8 | 0.00 | 0.69 | 0.69 | 39 | 1017.1 |
| 20260503192724 | 23 | 36 | 1.6 | 4.8 | 0.00 | 0.69 | 0.69 | 42 | 1020.4 |
| 20260503192624 | 23 | 112 | 1.6 | 3.2 | 0.00 | 0.69 | 0.69 | 42 | 1020.4 |
| 20260503192524 | 26 | 108 | 3.2 | 4.8 | 0.00 | 0.69 | 0.69 | 36 | 1017.1 |
| 20260503192424 | 23 | 110 | 1.6 | 8.0 | 0.00 | 0.69 | 0.69 | 42 | 1020.4 |
| 20260503192324 | 23 | 10 | 1.6 | 4.8 | 0.00 | 0.69 | 0.69 | 42 | 1020.4 |
| 20260503192224 | 26 | 46 | 1.6 | 4.8 | 0.00 | 0.69 | 0.69 | 36 | 1017.2 |
| 20260503192124 | 23 | 22 | 1.6 | 4.8 | 0.00 | 0.69 | 0.69 | 42 | 1020.4 |
| 20260503191954 | 23 | 47 | 1.6 | 9.7 | 0.00 | 0.69 | 0.69 | 42 | 1020.4 |
| 20260503191854 | 23 | 32 | 3.2 | 3.2 | 0.00 | 0.69 | 0.69 | 42 | 1020.4 |
| 20260503191754 | 23 | 103 | 1.6 | 8.0 | 0.00 | 0.69 | 0.69 | 42 | 1020.4 |
| 20260503191654 | 26 | 99 | 1.6 | 4.8 | 0.00 | 0.69 | 0.69 | 34 | 1017.3 |
| 20260503191554 | 26 | 19 | 3.2 | 4.8 | 0.00 | 0.69 | 0.69 | 35 | 1017.3 |
| 20260503191454 | 26 | 319 | 1.6 | 4.8 | 0.00 | 0.69 | 0.69 | 35 | 1017.3 |
| 20260503191354 | 23 | 40 | 1.6 | 4.8 | 0.00 | 0.69 | 0.69 | 42 | 1020.4 |
| 20260503191254 | 23 | 327 | 1.6 | 4.8 | 0.00 | 0.69 | 0.69 | 42 | 1020.4 |
| 20260503191154 | 26 | 324 | 1.6 | 4.8 | 0.00 | 0.69 | 0.69 | 36 | 1017.4 |
| 20260503191054 | 23 | 356 | 3.2 | 4.8 | 0.00 | 0.69 | 0.69 | 42 | 1020.4 |
| 20260503190954 | 23 | 108 | 1.6 | 4.8 | 0.00 | 0.69 | 0.69 | 42 | 1020.4 |
| 20260503190854 | 23 | 117 | 1.6 | 4.8 | 0.00 | 0.69 | 0.69 | 42 | 1020.4 |
| 20260503190754 | 26 | 124 | 1.6 | 4.8 | 0.00 | 0.69 | 0.69 | 36 | 1017.4 |
| 20260503190654 | 25 | 35 | 1.6 | 3.2 | 0.00 | 0.69 | 0.69 | 36 | 1017.5 |
| 20260503190554 | 23 | 7 | 0.0 | 4.8 | 0.00 | 0.69 | 0.69 | 42 | 1020.4 |
| 20260503190424 | 25 | 354 | 1.6 | 3.2 | 0.00 | 0.69 | 0.69 | 37 | 1017.5 |
| 20260503190324 | 23 | 359 | 0.0 | 3.2 | 0.00 | 0.69 | 0.69 | 42 | 1020.4 |
| 20260503190224 | 23 | 117 | 0.0 | 1.6 | 0.00 | 0.69 | 0.69 | 42 | 1020.4 |
| 20260503190124 | 25 | 133 | 1.6 | 3.2 | 0.00 | 0.69 | 0.69 | 36 | 1017.6 |
| 20260503190024 | 23 | 62 | 3.2 | 3.2 | 0.00 | 0.69 | 0.69 | 42 | 1020.4 |
| 20260503185924 | 25 | 96 | 1.6 | 8.0 | 0.00 | 0.69 | 0.69 | 38 | 1017.6 |
| 20260503185824 | 23 | 348 | 0.0 | 3.2 | 0.00 | 0.69 | 0.69 | 42 | 1020.4 |
| 20260503185724 | 23 | 26 | 1.6 | 1.6 | 0.00 | 0.69 | 0.69 | 42 | 1020.4 |
| 20260503185624 | 25 | 200 | 3.2 | 3.2 | 0.00 | 0.69 | 0.69 | 35 | 1017.6 |
| 20260503185524 | 23 | 228 | 1.6 | 4.8 | 0.00 | 0.69 | 0.69 | 42 | 1020.4 |
| 20260503185424 | 25 | 18 | 3.2 | 8.0 | 0.00 | 0.69 | 0.69 | 36 | 1017.6 |
| 20260503185324 | 25 | 70 | 3.2 | 8.0 | 0.00 | 0.69 | 0.69 | 37 | 1017.6 |
| 20260503185224 | 25 | 108 | 1.6 | 4.8 | 0.00 | 0.69 | 0.69 | 35 | 1017.7 |
| 20260503185124 | 25 | 50 | 1.6 | 11.3 | 0.00 | 0.69 | 0.69 | 35 | 1017.7 |
| 20260503185024 | 23 | 262 | 1.6 | 4.8 | 0.00 | 0.69 | 0.69 | 42 | 1020.4 |
| 20260503184924 | 25 | 214 | 3.2 | 3.2 | 0.00 | 0.69 | 0.69 | 34 | 1017.6 |
| 20260503184824 | 25 | 236 | 1.6 | 4.8 | 0.00 | 0.69 | 0.69 | 36 | 1017.7 |
| 20260503184724 | 25 | 250 | 1.6 | 4.8 | 0.00 | 0.69 | 0.69 | 38 | 1017.8 |
| 20260503184624 | 23 | 351 | 1.6 | 3.2 | 0.00 | 0.69 | 0.69 | 42 | 1020.4 |
| 20260503184524 | 23 | 357 | 3.2 | 3.2 | 0.00 | 0.69 | 0.69 | 42 | 1020.4 |
| 20260503184424 | 25 | 290 | 3.2 | 8.0 | 0.00 | 0.69 | 0.69 | 37 | 1017.8 |
| 20260503184324 | 25 | 329 | 1.6 | 4.8 | 0.00 | 0.69 | 0.69 | 36 | 1017.8 |
| 20260503184224 | 25 | 81 | 1.6 | 3.2 | 0.00 | 0.69 | 0.69 | 36 | 1017.8 |
| 20260503184124 | 25 | 335 | 1.6 | 3.2 | 0.00 | 0.69 | 0.69 | 36 | 1017.7 |
| 20260503184024 | 25 | 318 | 1.6 | 4.8 | 0.00 | 0.69 | 0.69 | 36 | 1017.8 |
| 20260503183924 | 25 | 3 | 1.6 | 4.8 | 0.00 | 0.69 | 0.69 | 35 | 1017.7 |
| 20260503183754 | 25 | 197 | 3.2 | 9.7 | 0.00 | 0.69 | 0.69 | 36 | 1017.9 |
| 20260503183654 | 23 | 105 | 1.6 | 9.7 | 0.00 | 0.69 | 0.69 | 42 | 1020.4 |
| 20260503183554 | 25 | 354 | 3.2 | 4.8 | 0.00 | 0.69 | 0.69 | 35 | 1017.9 |
| 20260503183454 | 25 | 46 | 3.2 | 9.7 | 0.00 | 0.69 | 0.69 | 36 | 1018.0 |
| 20260503183354 | 23 | 326 | 1.6 | 4.8 | 0.00 | 0.69 | 0.69 | 42 | 1020.4 |
| 20260503183254 | 25 | 280 | 3.2 | 4.8 | 0.00 | 0.69 | 0.69 | 37 | 1018.0 |
| 20260503183124 | 25 | 43 | 1.6 | 11.3 | 0.00 | 0.69 | 0.69 | 38 | 1018.0 |
| 20260503183024 | 23 | 356 | 1.6 | 4.8 | 0.00 | 0.69 | 0.69 | 42 | 1020.4 |
| 20260503182924 | 25 | 15 | 1.6 | 4.8 | 0.00 | 0.69 | 0.69 | 39 | 1017.9 |
| 20260503182824 | 25 | 198 | 1.6 | 4.8 | 0.00 | 0.69 | 0.69 | 40 | 1018.0 |
| 20260503182724 | 23 | 81 | 3.2 | 4.8 | 0.00 | 0.69 | 0.69 | 42 | 1020.4 |
| 20260503182624 | 23 | 117 | 3.2 | 9.7 | 0.00 | 0.69 | 0.69 | 42 | 1020.4 |
| 20260503182454 | 23 | 32 | 3.2 | 4.8 | 0.00 | 0.69 | 0.69 | 42 | 1020.4 |
| 20260503182354 | 25 | 69 | 3.2 | 4.8 | 0.00 | 0.69 | 0.69 | 35 | 1018.1 |
| 20260503182254 | 25 | 81 | 1.6 | 9.7 | 0.00 | 0.69 | 0.69 | 35 | 1018.2 |
| 20260503182154 | 23 | 329 | 1.6 | 8.0 | 0.00 | 0.69 | 0.69 | 42 | 1020.4 |
| 20260503182054 | 25 | 0 | 1.6 | 3.2 | 0.00 | 0.69 | 0.69 | 36 | 1018.2 |
| 20260503181954 | 25 | 4 | 0.0 | 3.2 | 0.00 | 0.69 | 0.69 | 36 | 1018.2 |
| 20260503181854 | 25 | 346 | 3.2 | 3.2 | 0.00 | 0.69 | 0.69 | 36 | 1018.2 |
| 20260503181754 | 23 | 35 | 0.0 | 9.7 | 0.00 | 0.69 | 0.69 | 42 | 1020.4 |
| 20260503181654 | 25 | 249 | 0.0 | 1.6 | 0.00 | 0.69 | 0.69 | 35 | 1018.2 |
| 20260503181554 | 25 | 323 | 1.6 | 0.0 | 0.00 | 0.69 | 0.69 | 35 | 1018.1 |
| 20260503181454 | 25 | 18 | 3.2 | 4.8 | 0.00 | 0.69 | 0.69 | 34 | 1018.2 |
| 20260503181354 | 23 | 319 | 1.6 | 4.8 | 0.00 | 0.69 | 0.69 | 42 | 1020.4 |
| 20260503181254 | 25 | 324 | 1.6 | 4.8 | 0.00 | 0.69 | 0.69 | 35 | 1018.1 |
| 20260503181154 | 25 | 337 | 1.6 | 4.8 | 0.00 | 0.69 | 0.69 | 36 | 1018.1 |
| 20260503181054 | 23 | 6 | 1.6 | 4.8 | 0.00 | 0.69 | 0.69 | 42 | 1020.4 |
| 20260503180954 | 25 | 33 | 1.6 | 3.2 | 0.00 | 0.69 | 0.69 | 34 | 1018.1 |
| 20260503180854 | 23 | 275 | 3.2 | 8.0 | 0.00 | 0.69 | 0.69 | 42 | 1020.4 |
| 20260503180754 | 23 | 39 | 3.2 | 8.0 | 0.00 | 0.69 | 0.69 | 42 | 1020.4 |
| 20260503180654 | 23 | 41 | 1.6 | 11.3 | 0.00 | 0.69 | 0.69 | 42 | 1020.4 |
| 20260503180554 | 23 | 261 | 3.2 | 4.8 | 0.00 | 0.69 | 0.69 | 42 | 1020.4 |
| 20260503180454 | 25 | 352 | 3.2 | 4.8 | 0.00 | 0.69 | 0.69 | 36 | 1018.2 |
| 20260503180354 | 23 | 105 | 1.6 | 8.0 | 0.00 | 0.69 | 0.69 | 42 | 1020.4 |
| 20260503180254 | 23 | 185 | 0.0 | 4.8 | 0.00 | 0.69 | 0.69 | 42 | 1020.4 |
| 20260503180154 | 24 | 23 | 1.6 | 1.6 | 0.00 | 0.69 | 0.69 | 34 | 1018.2 |
| 20260503180054 | 23 | 40 | 1.6 | 4.8 | 0.00 | 0.69 | 0.69 | 42 | 1020.4 |
| 20260503175954 | 24 | 48 | 1.6 | 8.0 | 0.00 | 0.69 | 0.69 | 33 | 1018.3 |
| 20260503175854 | 24 | 325 | 1.6 | 4.8 | 0.00 | 0.69 | 0.69 | 33 | 1018.1 |
| 20260503175754 | 24 | 9 | 3.2 | 3.2 | 0.00 | 0.69 | 0.69 | 33 | 1018.1 |
| 20260503175654 | 24 | 8 | 3.2 | 8.0 | 0.00 | 0.69 | 0.69 | 34 | 1018.1 |
| 20260503175554 | 24 | 294 | 3.2 | 8.0 | 0.00 | 0.69 | 0.69 | 34 | 1018.2 |
| 20260503175424 | 23 | 255 | 4.8 | 4.8 | 0.00 | 0.69 | 0.69 | 42 | 1020.4 |
| 20260503175324 | 24 | 267 | 1.6 | 14.5 | 0.00 | 0.69 | 0.69 | 36 | 1018.2 |
| 20260503175224 | 24 | 271 | 3.2 | 4.8 | 0.00 | 0.69 | 0.69 | 35 | 1018.2 |
| 20260503175054 | 23 | 16 | 3.2 | 4.8 | 0.00 | 0.69 | 0.69 | 42 | 1020.4 |
| 20260503174954 | 24 | 24 | 1.6 | 4.8 | 0.00 | 0.69 | 0.69 | 38 | 1018.0 |
| 20260503174854 | 23 | 187 | 3.2 | 8.0 | 0.00 | 0.69 | 0.69 | 42 | 1020.4 |
| 20260503174754 | 23 | 69 | 3.2 | 8.0 | 0.00 | 0.69 | 0.69 | 42 | 1020.4 |
| 20260503174654 | 23 | 10 | 1.6 | 4.8 | 0.00 | 0.69 | 0.69 | 42 | 1020.4 |
| 20260503174554 | 23 | 303 | 1.6 | 4.8 | 0.00 | 0.69 | 0.69 | 42 | 1020.4 |
| 20260503174454 | 24 | 0 | 3.2 | 8.0 | 0.00 | 0.69 | 0.69 | 34 | 1018.2 |
| 20260503174354 | 23 | 23 | 1.6 | 4.8 | 0.00 | 0.69 | 0.69 | 42 | 1020.4 |
| 20260503174254 | 24 | 312 | 1.6 | 9.7 | 0.00 | 0.69 | 0.69 | 34 | 1018.2 |
| 20260503174154 | 24 | 16 | 3.2 | 4.8 | 0.00 | 0.69 | 0.69 | 34 | 1018.1 |
| 20260503174054 | 23 | 248 | 1.6 | 4.8 | 0.00 | 0.69 | 0.69 | 42 | 1020.4 |
| 20260503173954 | 23 | 309 | 3.2 | 4.8 | 0.00 | 0.69 | 0.69 | 42 | 1020.4 |
| 20260503173854 | 24 | 306 | 1.6 | 8.0 | 0.00 | 0.69 | 0.69 | 35 | 1018.1 |
| 20260503173754 | 23 | 24 | 1.6 | 3.2 | 0.00 | 0.69 | 0.69 | 42 | 1020.4 |
| 20260503173654 | 24 | 329 | 1.6 | 3.2 | 0.00 | 0.69 | 0.69 | 34 | 1018.3 |
| 20260503173554 | 23 | 37 | 3.2 | 4.8 | 0.00 | 0.69 | 0.69 | 42 | 1020.4 |
| 20260503173454 | 23 | 37 | 1.6 | 11.3 | 0.00 | 0.69 | 0.69 | 42 | 1020.4 |
| 20260503173354 | 23 | 337 | 0.0 | 3.2 | 0.00 | 0.69 | 0.69 | 42 | 1020.4 |
| 20260503173254 | 24 | 251 | 3.2 | 3.2 | 0.00 | 0.69 | 0.69 | 35 | 1018.3 |
| 20260503173154 | 23 | 7 | 1.6 | 4.8 | 0.00 | 0.69 | 0.69 | 42 | 1020.4 |
| 20260503173054 | 23 | 356 | 3.2 | 4.8 | 0.00 | 0.69 | 0.69 | 42 | 1020.4 |
| 20260503172954 | 24 | 53 | 1.6 | 9.7 | 0.00 | 0.69 | 0.69 | 35 | 1018.3 |
| 20260503172854 | 24 | 273 | 3.2 | 4.8 | 0.00 | 0.69 | 0.69 | 36 | 1018.4 |
| 20260503172754 | 23 | 80 | 0.0 | 9.7 | 0.00 | 0.69 | 0.69 | 42 | 1020.4 |
| 20260503172654 | 23 | 325 | 1.6 | 1.6 | 0.00 | 0.69 | 0.69 | 42 | 1020.4 |
| 20260503172554 | 23 | 117 | 1.6 | 4.8 | 0.00 | 0.69 | 0.69 | 42 | 1020.4 |
| 20260503172454 | 23 | 283 | 3.2 | 3.2 | 0.00 | 0.69 | 0.69 | 35 | 1018.3 |
| 20260503172354 | 23 | 306 | 1.6 | 9.7 | 0.00 | 0.69 | 0.69 | 42 | 1020.4 |
| 20260503172254 | 23 | 284 | 1.6 | 4.8 | 0.00 | 0.69 | 0.69 | 42 | 1020.4 |
| 20260503172154 | 23 | 35 | 3.2 | 4.8 | 0.00 | 0.69 | 0.69 | 35 | 1018.4 |
| 20260503172054 | 23 | 25 | 3.2 | 9.7 | 0.00 | 0.69 | 0.69 | 42 | 1020.4 |
| 20260503171954 | 23 | 262 | 3.2 | 8.0 | 0.00 | 0.69 | 0.69 | 36 | 1018.5 |
| 20260503171854 | 23 | 206 | 3.2 | 4.8 | 0.00 | 0.69 | 0.69 | 35 | 1018.5 |
| 20260503171754 | 23 | 92 | 3.2 | 8.0 | 0.00 | 0.69 | 0.69 | 42 | 1020.4 |
| 20260503171654 | 24 | 337 | 4.8 | 11.3 | 0.00 | 0.69 | 0.69 | 35 | 1018.6 |
| 20260503171554 | 24 | 27 | 4.8 | 4.8 | 0.00 | 0.69 | 0.69 | 35 | 1018.6 |
| 20260503171454 | 23 | 10 | 4.8 | 11.3 | 0.00 | 0.69 | 0.69 | 42 | 1020.4 |
| 20260503171354 | 24 | 70 | 3.2 | 11.3 | 0.00 | 0.69 | 0.69 | 36 | 1018.6 |
| 20260503171254 | 23 | 14 | 1.6 | 8.0 | 0.00 | 0.69 | 0.69 | 42 | 1020.4 |
| 20260503171154 | 23 | 329 | 1.6 | 4.8 | 0.00 | 0.69 | 0.69 | 42 | 1020.4 |
| 20260503171054 | 23 | 313 | 3.2 | 3.2 | 0.00 | 0.69 | 0.69 | 35 | 1018.6 |
| 20260503170954 | 23 | 334 | 3.2 | 4.8 | 0.00 | 0.69 | 0.69 | 35 | 1018.6 |
| 20260503170854 | 23 | 57 | 3.2 | 4.8 | 0.00 | 0.69 | 0.69 | 42 | 1020.4 |
| 20260503170754 | 23 | 126 | 3.2 | 4.8 | 0.00 | 0.69 | 0.69 | 35 | 1018.7 |
| 20260503170654 | 23 | 349 | 3.2 | 11.3 | 0.00 | 0.69 | 0.69 | 35 | 1018.7 |
| 20260503170554 | 23 | 335 | 1.6 | 8.0 | 0.00 | 0.69 | 0.69 | 35 | 1018.7 |
| 20260503170454 | 23 | 294 | 1.6 | 3.2 | 0.00 | 0.69 | 0.69 | 42 | 1020.4 |
| 20260503170354 | 23 | 302 | 4.8 | 4.8 | 0.00 | 0.69 | 0.69 | 35 | 1018.7 |
| 20260503170224 | 23 | 278 | 1.6 | 9.7 | 0.00 | 0.69 | 0.69 | 42 | 1020.4 |
| 20260503170124 | 23 | 125 | 3.2 | 8.0 | 0.00 | 0.69 | 0.69 | 42 | 1020.4 |
| 20260503160153 | 23 | 87 | 3.2 | 11.3 | 0.00 | 0.69 | 0.69 | 37 | 1019.5 |
| 20260503150923 | 23 | 280 | 1.6 | 3.2 | 0.00 | 0.69 | 0.69 | 42 | 1020.4 |
| 20260503150823 | 23 | 306 | 3.2 | 4.8 | 0.00 | 0.69 | 0.69 | 42 | 1020.4 |
| 20260503150723 | 22 | 291 | 3.2 | 4.8 | 0.00 | 0.69 | 0.69 | 46 | 1019.6 |
| 20260503150623 | 23 | 78 | 1.6 | 4.8 | 0.00 | 0.69 | 0.69 | 42 | 1020.4 |
| 20260503150523 | 22 | 294 | 1.6 | 4.8 | 0.00 | 0.69 | 0.69 | 48 | 1019.8 |
| 20260503150423 | 23 | 93 | 1.6 | 3.2 | 0.00 | 0.69 | 0.69 | 42 | 1020.4 |
| 20260503150323 | 22 | 25 | 3.2 | 4.8 | 0.00 | 0.69 | 0.69 | 47 | 1019.7 |
| 20260503150223 | 23 | 27 | 1.6 | 9.7 | 0.00 | 0.69 | 0.69 | 42 | 1020.4 |
| 20260503150123 | 23 | 301 | 0.0 | 4.8 | 0.00 | 0.69 | 0.69 | 42 | 1020.4 |
| 20260503140253 | 23 | 248 | 1.6 | 3.2 | 0.00 | 0.69 | 0.69 | 42 | 1020.4 |
| 20260503140153 | 23 | 288 | 1.6 | 4.8 | 0.00 | 0.69 | 0.69 | 42 | 1020.4 |
| 20260503131353 | 17 | 290 | 0.0 | 3.2 | 0.00 | 0.69 | 0.69 | 56 | 1018.8 |
| 20260503131253 | 23 | 301 | 0.0 | 3.2 | 0.00 | 0.69 | 0.69 | 42 | 1020.4 |
| 20260503131123 | 23 | 255 | 0.0 | 1.6 | 0.00 | 0.69 | 0.69 | 42 | 1020.4 |
| 20260503131023 | 17 | 149 | 0.0 | 1.6 | 0.00 | 0.69 | 0.69 | 56 | 1018.7 |
| 20260503130923 | 17 | 2 | 1.6 | 3.2 | 0.00 | 0.69 | 0.69 | 56 | 1018.7 |
| 20260503130823 | 23 | 296 | 0.0 | 3.2 | 0.00 | 0.69 | 0.69 | 42 | 1020.4 |
| 20260503130723 | 17 | 252 | 0.0 | 1.6 | 0.00 | 0.69 | 0.69 | 56 | 1018.7 |
| 20260503130623 | 17 | 229 | 0.0 | 0.0 | 0.00 | 0.69 | 0.69 | 57 | 1018.6 |
| 20260503130523 | 16 | 229 | 0.0 | 0.0 | 0.00 | 0.69 | 0.69 | 56 | 1018.6 |
| 20260503130423 | 23 | 231 | 1.6 | 1.6 | 0.00 | 0.69 | 0.69 | 42 | 1020.4 |
| 20260503130323 | 23 | 265 | 0.0 | 4.8 | 0.00 | 0.69 | 0.69 | 42 | 1020.4 |
| 20260503130223 | 23 | 195 | 1.6 | 4.8 | 0.00 | 0.69 | 0.69 | 42 | 1020.4 |
| 20260503130123 | 23 | 220 | 1.6 | 4.8 | 0.00 | 0.69 | 0.69 | 42 | 1020.4 |
| 20260503120123 | 12 | 289 | 0.0 | 0.0 | 0.00 | 0.69 | 0.69 | 70 | 1017.6 |
| 20260503110823 | 11 | 268 | 0.0 | 0.0 | 0.00 | 0.69 | 0.69 | 72 | 1017.0 |
| 20260503110723 | 23 | 268 | 0.0 | 0.0 | 0.00 | 0.69 | 0.69 | 42 | 1020.4 |
| 20260503110623 | 11 | 268 | 1.6 | 1.6 | 0.00 | 0.69 | 0.69 | 72 | 1017.0 |
| 20260503110523 | 11 | 262 | 0.0 | 1.6 | 0.00 | 0.69 | 0.69 | 72 | 1017.0 |
| 20260503110423 | 11 | 283 | 0.0 | 1.6 | 0.00 | 0.69 | 0.69 | 72 | 1017.0 |
| 20260503110323 | 23 | 290 | 0.0 | 0.0 | 0.00 | 0.69 | 0.69 | 42 | 1020.4 |
| 20260503110223 | 11 | 290 | 0.0 | 0.0 | 0.00 | 0.69 | 0.69 | 72 | 1017.0 |
| 20260503110123 | 11 | 290 | 0.0 | 0.0 | 0.00 | 0.69 | 0.69 | 72 | 1017.0 |
| 20260503100252 | 11 | 282 | 0.0 | 0.0 | 0.00 | 0.69 | 0.69 | 77 | 1016.4 |
| 20260503100152 | 23 | 282 | 0.0 | 0.0 | 0.00 | 0.69 | 0.69 | 42 | 1020.4 |
| 20260503090452 | 11 | 258 | 0.0 | 0.0 | 0.00 | 0.69 | 0.69 | 75 | 1016.1 |
| 20260503090352 | 23 | 258 | 0.0 | 0.0 | 0.00 | 0.69 | 0.69 | 42 | 1020.4 |
| 20260503090252 | 11 | 258 | 0.0 | 0.0 | 0.00 | 0.69 | 0.69 | 74 | 1016.1 |
| 20260503090152 | 11 | 258 | 0.0 | 0.0 | 0.00 | 0.69 | 0.69 | 75 | 1016.1 |
| 20260503081552 | 12 | 201 | 0.0 | 0.0 | 0.00 | 0.69 | 0.69 | 73 | 1016.0 |
| 20260503081452 | 12 | 201 | 0.0 | 0.0 | 0.00 | 0.69 | 0.69 | 74 | 1016.0 |
| 20260503081352 | 23 | 200 | 0.0 | 0.0 | 0.00 | 0.69 | 0.69 | 42 | 1020.4 |
| 20260503081252 | 23 | 200 | 0.0 | 0.0 | 0.00 | 0.69 | 0.69 | 42 | 1020.4 |
| 20260503081152 | 23 | 200 | 0.0 | 0.0 | 0.00 | 0.69 | 0.69 | 42 | 1020.4 |
| 20260503081022 | 23 | 200 | 0.0 | 0.0 | 0.00 | 0.69 | 0.69 | 42 | 1020.4 |
| 20260503080922 | 12 | 201 | 0.0 | 0.0 | 0.00 | 0.69 | 0.69 | 73 | 1016.0 |
| 20260503080822 | 23 | 200 | 0.0 | 0.0 | 0.00 | 0.69 | 0.69 | 42 | 1020.4 |
| 20260503080722 | 12 | 201 | 0.0 | 0.0 | 0.00 | 0.69 | 0.69 | 73 | 1015.9 |
| 20260503080552 | 23 | 200 | 0.0 | 0.0 | 0.00 | 0.69 | 0.69 | 42 | 1020.4 |
| 20260503080452 | 11 | 201 | 0.0 | 0.0 | 0.00 | 0.69 | 0.69 | 73 | 1015.8 |
| 20260503080352 | 11 | 201 | 0.0 | 0.0 | 0.00 | 0.69 | 0.69 | 74 | 1015.8 |
| 20260503080252 | 23 | 200 | 0.0 | 0.0 | 0.00 | 0.69 | 0.69 | 42 | 1020.4 |
| 20260503080152 | 11 | 201 | 0.0 | 0.0 | 0.00 | 0.69 | 0.69 | 74 | 1015.7 |
| 20260503072922 | 12 | 224 | 0.0 | 0.0 | 0.00 | 0.69 | 0.69 | 72 | 1015.6 |
| 20260503072822 | 12 | 224 | 0.0 | 0.0 | 0.00 | 0.69 | 0.69 | 72 | 1015.7 |
| 20260503072722 | 23 | 223 | 0.0 | 0.0 | 0.00 | 0.69 | 0.69 | 42 | 1020.4 |
| 20260503072622 | 23 | 223 | 0.0 | 0.0 | 0.00 | 0.69 | 0.69 | 42 | 1020.4 |
| 20260503072522 | 11 | 224 | 0.0 | 1.6 | 0.00 | 0.69 | 0.69 | 74 | 1015.6 |
| 20260503072422 | 23 | 247 | 0.0 | 1.6 | 0.00 | 0.69 | 0.69 | 42 | 1020.4 |
| 20260503072322 | 11 | 257 | 0.0 | 1.6 | 0.00 | 0.69 | 0.69 | 75 | 1015.5 |
| 20260503072222 | 11 | 241 | 0.0 | 0.0 | 0.00 | 0.69 | 0.69 | 75 | 1015.5 |
| 20260503072122 | 11 | 241 | 0.0 | 0.0 | 0.00 | 0.69 | 0.69 | 75 | 1015.5 |
| 20260503072022 | 23 | 241 | 0.0 | 0.0 | 0.00 | 0.69 | 0.69 | 42 | 1020.4 |
| 20260503071922 | 11 | 241 | 0.0 | 0.0 | 0.00 | 0.69 | 0.69 | 75 | 1015.5 |
| 20260503071822 | 23 | 241 | 0.0 | 0.0 | 0.00 | 0.69 | 0.69 | 42 | 1020.4 |
| 20260503071722 | 23 | 241 | 0.0 | 0.0 | 0.00 | 0.69 | 0.69 | 42 | 1020.4 |
| 20260503071622 | 23 | 241 | 0.0 | 0.0 | 0.00 | 0.69 | 0.69 | 42 | 1020.4 |
| 20260503071522 | 11 | 243 | 0.0 | 1.6 | 0.00 | 0.69 | 0.69 | 76 | 1015.4 |
| 20260503071422 | 23 | 262 | 0.0 | 0.0 | 0.00 | 0.69 | 0.69 | 42 | 1020.4 |
| 20260503071252 | 23 | 262 | 0.0 | 0.0 | 0.00 | 0.69 | 0.69 | 42 | 1020.4 |
| 20260503071152 | 11 | 261 | 0.0 | 0.0 | 0.00 | 0.69 | 0.69 | 75 | 1015.4 |
| 20260503071052 | 11 | 261 | 0.0 | 0.0 | 0.00 | 0.69 | 0.69 | 74 | 1015.5 |
| 20260503070952 | 23 | 262 | 0.0 | 0.0 | 0.00 | 0.69 | 0.69 | 42 | 1020.4 |
| 20260503070852 | 11 | 261 | 0.0 | 0.0 | 0.00 | 0.69 | 0.69 | 74 | 1015.5 |
| 20260503070722 | 23 | 262 | 0.0 | 0.0 | 0.00 | 0.69 | 0.69 | 42 | 1020.4 |
| 20260503070622 | 23 | 262 | 0.0 | 0.0 | 0.00 | 0.69 | 0.69 | 42 | 1020.4 |
| 20260503070522 | 11 | 261 | 0.0 | 0.0 | 0.00 | 0.69 | 0.69 | 74 | 1015.5 |
| 20260503070422 | 23 | 262 | 0.0 | 0.0 | 0.00 | 0.69 | 0.69 | 42 | 1020.4 |
| 20260503070322 | 23 | 262 | 0.0 | 0.0 | 0.00 | 0.69 | 0.69 | 42 | 1020.4 |
| 20260503070222 | 23 | 262 | 0.0 | 0.0 | 0.00 | 0.69 | 0.69 | 42 | 1020.4 |
| 20260503070122 | 23 | 262 | 0.0 | 0.0 | 0.00 | 0.69 | 0.69 | 42 | 1020.4 |
| 20260503060252 | 13 | 319 | 0.0 | 0.0 | 0.00 | 0.69 | 0.69 | 66 | 1015.5 |
| 20260503060152 | 23 | 319 | 0.0 | 0.0 | 0.00 | 0.69 | 0.69 | 42 | 1020.4 |
| 20260503055122 | 13 | 319 | 0.0 | 0.0 | 0.00 | 0.69 | 0.69 | 66 | 1015.5 |
| 20260503054952 | 13 | 319 | 0.0 | 0.0 | 0.00 | 0.69 | 0.69 | 66 | 1015.5 |
| 20260503054852 | 13 | 319 | 0.0 | 0.0 | 0.00 | 0.69 | 0.69 | 66 | 1015.5 |
| 20260503054752 | 23 | 317 | 1.6 | 1.6 | 0.00 | 0.69 | 0.69 | 42 | 1020.4 |
| 20260503054652 | 13 | 281 | 0.0 | 1.6 | 0.00 | 0.69 | 0.69 | 66 | 1015.4 |
| 20260503054552 | 13 | 300 | 0.0 | 0.0 | 0.00 | 0.69 | 0.69 | 66 | 1015.4 |
| 20260503054422 | 13 | 300 | 0.0 | 0.0 | 0.00 | 0.69 | 0.69 | 66 | 1015.4 |
| 20260503054322 | 23 | 300 | 0.0 | 0.0 | 0.00 | 0.69 | 0.69 | 42 | 1020.4 |
| 20260503054222 | 13 | 300 | 0.0 | 0.0 | 0.00 | 0.69 | 0.69 | 65 | 1015.4 |
| 20260503054122 | 13 | 300 | 0.0 | 0.0 | 0.00 | 0.69 | 0.69 | 66 | 1015.4 |
| 20260503054022 | 23 | 300 | 0.0 | 0.0 | 0.00 | 0.69 | 0.69 | 42 | 1020.4 |
| 20260503053922 | 14 | 300 | 0.0 | 0.0 | 0.00 | 0.69 | 0.69 | 65 | 1015.4 |
| 20260503053822 | 23 | 300 | 0.0 | 0.0 | 0.00 | 0.69 | 0.69 | 42 | 1020.4 |
| 20260503053652 | 23 | 300 | 0.0 | 0.0 | 0.00 | 0.69 | 0.69 | 42 | 1020.4 |
| 20260503053522 | 14 | 300 | 0.0 | 0.0 | 0.00 | 0.69 | 0.69 | 65 | 1015.4 |
| 20260503053422 | 23 | 300 | 0.0 | 1.6 | 0.00 | 0.69 | 0.69 | 42 | 1020.4 |
| 20260503053322 | 14 | 286 | 0.0 | 1.6 | 0.00 | 0.69 | 0.69 | 65 | 1015.5 |
| 20260503053152 | 23 | 270 | 0.0 | 1.6 | 0.00 | 0.69 | 0.69 | 42 | 1020.4 |
| 20260503053052 | 14 | 290 | 0.0 | 0.0 | 0.00 | 0.69 | 0.69 | 65 | 1015.5 |
| 20260503052952 | 14 | 290 | 0.0 | 1.6 | 0.00 | 0.69 | 0.69 | 65 | 1015.4 |
| 20260503052852 | 23 | 285 | 0.0 | 1.6 | 0.00 | 0.69 | 0.69 | 42 | 1020.4 |
| 20260503052752 | 23 | 283 | 0.0 | 0.0 | 0.00 | 0.69 | 0.69 | 42 | 1020.4 |
| 20260503052652 | 14 | 284 | 0.0 | 0.0 | 0.00 | 0.69 | 0.69 | 65 | 1015.5 |
| 20260503052552 | 23 | 283 | 0.0 | 0.0 | 0.00 | 0.69 | 0.69 | 42 | 1020.4 |
| 20260503052452 | 23 | 283 | 0.0 | 0.0 | 0.00 | 0.69 | 0.69 | 42 | 1020.4 |
| 20260503052322 | 23 | 283 | 0.0 | 0.0 | 0.00 | 0.69 | 0.69 | 42 | 1020.4 |
| 20260503052222 | 14 | 311 | 0.0 | 1.6 | 0.00 | 0.69 | 0.69 | 64 | 1015.5 |
| 20260503052122 | 23 | 301 | 0.0 | 0.0 | 0.00 | 0.69 | 0.69 | 42 | 1020.4 |
| 20260503052022 | 23 | 303 | 1.6 | 1.6 | 0.00 | 0.69 | 0.69 | 42 | 1020.4 |
| 20260503051922 | 14 | 304 | 0.0 | 1.6 | 0.00 | 0.69 | 0.69 | 64 | 1015.5 |
| 20260503051752 | 14 | 243 | 1.6 | 1.6 | 0.00 | 0.69 | 0.69 | 64 | 1015.5 |
| 20260503051652 | 14 | 275 | 0.0 | 1.6 | 0.00 | 0.69 | 0.69 | 64 | 1015.5 |
| 20260503051552 | 23 | 300 | 0.0 | 0.0 | 0.00 | 0.69 | 0.69 | 42 | 1020.4 |
| 20260503051452 | 23 | 302 | 0.0 | 0.0 | 0.00 | 0.69 | 0.69 | 42 | 1020.4 |
| 20260503051322 | 23 | 308 | 0.0 | 1.6 | 0.00 | 0.69 | 0.69 | 42 | 1020.4 |
| 20260503051222 | 23 | 300 | 0.0 | 1.6 | 0.00 | 0.69 | 0.69 | 42 | 1020.4 |
| 20260503051052 | 14 | 300 | 0.0 | 0.0 | 0.00 | 0.69 | 0.69 | 65 | 1015.4 |
| 20260503050952 | 23 | 288 | 0.0 | 0.0 | 0.00 | 0.69 | 0.69 | 42 | 1020.4 |
| 20260503050852 | 14 | 290 | 0.0 | 1.6 | 0.00 | 0.69 | 0.69 | 64 | 1015.4 |
| 20260503050752 | 23 | 304 | 0.0 | 0.0 | 0.00 | 0.69 | 0.69 | 42 | 1020.4 |
| 20260503050652 | 14 | 305 | 0.0 | 0.0 | 0.00 | 0.69 | 0.69 | 65 | 1015.4 |
| 20260503050552 | 23 | 304 | 0.0 | 0.0 | 0.00 | 0.69 | 0.69 | 42 | 1020.4 |
| 20260503050422 | 14 | 295 | 0.0 | 0.0 | 0.00 | 0.69 | 0.69 | 64 | 1015.4 |
| 20260503050322 | 14 | 282 | 0.0 | 0.0 | 0.00 | 0.69 | 0.69 | 64 | 1015.4 |
| 20260503050222 | 23 | 283 | 0.0 | 0.0 | 0.00 | 0.69 | 0.69 | 42 | 1020.4 |
| 20260503050122 | 23 | 282 | 1.6 | 1.6 | 0.00 | 0.69 | 0.69 | 42 | 1020.4 |
| 20260503050022 | 14 | 270 | 0.0 | 1.6 | 0.00 | 0.69 | 0.00 | 64 | 1015.3 |
| 20260503045922 | 23 | 295 | 1.6 | 1.6 | 0.00 | 0.69 | 0.69 | 42 | 1020.4 |
| 20260503045822 | 14 | 270 | 1.6 | 1.6 | 0.00 | 0.69 | 0.69 | 64 | 1015.3 |
| 20260503045652 | 14 | 345 | 1.6 | 1.6 | 0.00 | 0.69 | 0.69 | 63 | 1015.3 |
| 20260503045552 | 14 | 315 | 0.0 | 1.6 | 0.00 | 0.69 | 0.69 | 64 | 1015.3 |
| 20260503045452 | 14 | 266 | 0.0 | 1.6 | 0.00 | 0.69 | 0.69 | 63 | 1015.3 |
| 20260503045352 | 23 | 265 | 1.6 | 1.6 | 0.00 | 0.69 | 0.69 | 42 | 1020.4 |
| 20260503045252 | 23 | 270 | 0.0 | 1.6 | 0.00 | 0.69 | 0.69 | 42 | 1020.4 |
| 20260503045122 | 14 | 297 | 1.6 | 1.6 | 0.00 | 0.69 | 0.69 | 63 | 1015.4 |
| 20260503045022 | 23 | 270 | 0.0 | 1.6 | 0.00 | 0.69 | 0.69 | 42 | 1020.4 |
| 20260503044922 | 23 | 253 | 0.0 | 1.6 | 0.00 | 0.69 | 0.69 | 42 | 1020.4 |
| 20260503044822 | 14 | 244 | 0.0 | 0.0 | 0.00 | 0.69 | 0.69 | 63 | 1015.4 |
| 20260503044722 | 14 | 252 | 0.0 | 1.6 | 0.00 | 0.69 | 0.69 | 64 | 1015.4 |
| 20260503044622 | 23 | 296 | 0.0 | 1.6 | 0.00 | 0.69 | 0.69 | 42 | 1020.4 |
| 20260503044522 | 15 | 295 | 0.0 | 1.6 | 0.00 | 0.69 | 0.69 | 64 | 1015.4 |
| 20260503044352 | 15 | 303 | 0.0 | 1.6 | 0.00 | 0.69 | 0.69 | 63 | 1015.4 |
| 20260503044252 | 15 | 300 | 0.0 | 1.6 | 0.00 | 0.69 | 0.69 | 63 | 1015.4 |
| 20260503044152 | 23 | 290 | 1.6 | 1.6 | 0.00 | 0.69 | 0.69 | 42 | 1020.4 |
| 20260503044022 | 23 | 295 | 0.0 | 1.6 | 0.00 | 0.69 | 0.69 | 42 | 1020.4 |
| 20260503043922 | 15 | 311 | 0.0 | 1.6 | 0.00 | 0.69 | 0.69 | 63 | 1015.3 |
| 20260503043822 | 23 | 302 | 0.0 | 1.6 | 0.00 | 0.69 | 0.69 | 42 | 1020.4 |
| 20260503043722 | 15 | 286 | 1.6 | 1.6 | 0.00 | 0.69 | 0.69 | 62 | 1015.3 |
| 20260503043622 | 23 | 292 | 0.0 | 3.2 | 0.00 | 0.69 | 0.69 | 42 | 1020.4 |
| 20260503043452 | 15 | 282 | 1.6 | 3.2 | 0.00 | 0.69 | 0.69 | 62 | 1015.2 |
| 20260503043352 | 15 | 286 | 0.0 | 3.2 | 0.00 | 0.69 | 0.69 | 62 | 1015.2 |
| 20260503043252 | 15 | 284 | 0.0 | 1.6 | 0.00 | 0.69 | 0.69 | 62 | 1015.2 |
| 20260503043152 | 15 | 292 | 0.0 | 1.6 | 0.00 | 0.69 | 0.69 | 63 | 1015.2 |
| 20260503043052 | 23 | 309 | 0.0 | 3.2 | 0.00 | 0.69 | 0.69 | 42 | 1020.4 |
| 20260503042952 | 15 | 301 | 0.0 | 3.2 | 0.00 | 0.69 | 0.69 | 63 | 1015.1 |
| 20260503042822 | 23 | 309 | 0.0 | 1.6 | 0.00 | 0.69 | 0.69 | 42 | 1020.4 |
| 20260503042722 | 14 | 306 | 0.0 | 1.6 | 0.00 | 0.69 | 0.69 | 62 | 1015.2 |
| 20260503042622 | 23 | 297 | 1.6 | 1.6 | 0.00 | 0.69 | 0.69 | 42 | 1020.4 |
| 20260503042522 | 23 | 285 | 0.0 | 1.6 | 0.00 | 0.69 | 0.69 | 42 | 1020.4 |
| 20260503042422 | 23 | 296 | 1.6 | 3.2 | 0.00 | 0.69 | 0.69 | 42 | 1020.4 |
| 20260503042252 | 23 | 288 | 1.6 | 3.2 | 0.00 | 0.69 | 0.69 | 42 | 1020.4 |
| 20260503042152 | 14 | 274 | 1.6 | 3.2 | 0.00 | 0.69 | 0.69 | 63 | 1015.0 |
| 20260503042022 | 23 | 270 | 0.0 | 3.2 | 0.00 | 0.69 | 0.69 | 42 | 1020.4 |
| 20260503041922 | 14 | 265 | 0.0 | 1.6 | 0.00 | 0.69 | 0.69 | 64 | 1015.0 |
| 20260503041822 | 23 | 288 | 1.6 | 1.6 | 0.00 | 0.69 | 0.69 | 42 | 1020.4 |
| 20260503041722 | 23 | 283 | 0.0 | 1.6 | 0.00 | 0.69 | 0.69 | 42 | 1020.4 |
| 20260503041622 | 14 | 280 | 0.0 | 1.6 | 0.00 | 0.69 | 0.69 | 64 | 1014.9 |
| 20260503041522 | 14 | 289 | 0.0 | 1.6 | 0.00 | 0.69 | 0.69 | 65 | 1014.9 |
| 20260503041352 | 23 | 286 | 0.0 | 3.2 | 0.00 | 0.69 | 0.69 | 42 | 1020.4 |
| 20260503041252 | 14 | 275 | 0.0 | 1.6 | 0.00 | 0.69 | 0.69 | 65 | 1014.9 |
| 20260503041152 | 14 | 270 | 0.0 | 1.6 | 0.00 | 0.69 | 0.69 | 65 | 1014.9 |
| 20260503041052 | 14 | 268 | 0.0 | 1.6 | 0.00 | 0.69 | 0.69 | 65 | 1014.8 |
| 20260503040952 | 14 | 296 | 0.0 | 0.0 | 0.00 | 0.69 | 0.69 | 65 | 1014.8 |
| 20260503040852 | 23 | 284 | 0.0 | 1.6 | 0.00 | 0.69 | 0.69 | 42 | 1020.4 |
| 20260503040722 | 14 | 281 | 1.6 | 3.2 | 0.00 | 0.69 | 0.69 | 66 | 1014.8 |
| 20260503040622 | 14 | 278 | 0.0 | 3.2 | 0.00 | 0.69 | 0.69 | 66 | 1014.8 |
| 20260503040522 | 23 | 282 | 0.0 | 1.6 | 0.00 | 0.69 | 0.69 | 42 | 1020.4 |
| 20260503040422 | 14 | 287 | 1.6 | 1.6 | 0.00 | 0.69 | 0.69 | 67 | 1014.7 |
| 20260503040322 | 14 | 274 | 0.0 | 1.6 | 0.00 | 0.69 | 0.69 | 67 | 1014.7 |
| 20260503040222 | 23 | 282 | 0.0 | 3.2 | 0.00 | 0.69 | 0.69 | 42 | 1020.4 |